<?xml version='1.0' encoding='UTF-8'?><gpx version="1.1" creator="JPX - https://github.com/jenetics/jpx" xmlns="http://www.topografix.com/GPX/1/1"><trk><trkseg><trkpt lat="44.41005141128103" lon="10.832012842364612"><ele>696.0</ele><time>2026-04-20T14:19:57Z</time></trkpt><trkpt lat="44.41012286996373" lon="10.83209699040697"><ele>696.0</ele><time>2026-04-20T14:19:58Z</time></trkpt><trkpt lat="44.4101975937207" lon="10.83217246643191"><ele>696.0</ele><time>2026-04-20T14:19:59Z</time></trkpt><trkpt lat="44.41027350722162" lon="10.832249293149506"><ele>696.0</ele><time>2026-04-20T14:20:00Z</time></trkpt><trkpt lat="44.41034951784053" lon="10.832329350408328"><ele>696.0</ele><time>2026-04-20T14:20:01Z</time></trkpt><trkpt lat="44.410427235121425" lon="10.832418790421206"><ele>696.5999999999999</ele><time>2026-04-20T14:20:02Z</time></trkpt><trkpt lat="44.41049977553367" lon="10.832524295874407"><ele>697.2</ele><time>2026-04-20T14:20:03Z</time></trkpt><trkpt lat="44.410565071664585" lon="10.832639131933034"><ele>697.8</ele><time>2026-04-20T14:20:04Z</time></trkpt><trkpt lat="44.4106193249706" lon="10.832759567661604"><ele>698.4000000000001</ele><time>2026-04-20T14:20:05Z</time></trkpt><trkpt lat="44.410669576484544" lon="10.832887230378367"><ele>699.0</ele><time>2026-04-20T14:20:05.999Z</time></trkpt><trkpt lat="44.410731231258396" lon="10.833036119328508"><ele>699.0</ele><time>2026-04-20T14:20:06.999Z</time></trkpt><trkpt lat="44.410793564630154" lon="10.833197340652013"><ele>699.0</ele><time>2026-04-20T14:20:07.999Z</time></trkpt><trkpt lat="44.41086039750896" lon="10.833341529417012"><ele>699.0</ele><time>2026-04-20T14:20:08.999Z</time></trkpt><trkpt lat="44.41093248161701" lon="10.833510423300304"><ele>699.0</ele><time>2026-04-20T14:20:09.999Z</time></trkpt><trkpt lat="44.41102107717681" lon="10.8336738188863"><ele>696.6</ele><time>2026-04-20T14:20:10.999Z</time></trkpt><trkpt lat="44.411105136047695" lon="10.833809882379363"><ele>694.2</ele><time>2026-04-20T14:20:11.999Z</time></trkpt><trkpt lat="44.41119783657099" lon="10.83392136091857"><ele>691.8000000000001</ele><time>2026-04-20T14:20:12.999Z</time></trkpt><trkpt lat="44.411264228683734" lon="10.834027789642855"><ele>689.4000000000001</ele><time>2026-04-20T14:20:13.999Z</time></trkpt><trkpt lat="44.41128827821142" lon="10.83412799794086"><ele>687.0</ele><time>2026-04-20T14:20:14.999Z</time></trkpt><trkpt lat="44.411263965032646" lon="10.834238469380985"><ele>687.0</ele><time>2026-04-20T14:20:15.999Z</time></trkpt><trkpt lat="44.41118976575735" lon="10.834321384731265"><ele>687.0</ele><time>2026-04-20T14:20:16.999Z</time></trkpt><trkpt lat="44.411081456418785" lon="10.834344836601208"><ele>687.0</ele><time>2026-04-20T14:20:17.999Z</time></trkpt><trkpt lat="44.410967609922196" lon="10.83425016793554"><ele>687.0</ele><time>2026-04-20T14:20:18.999Z</time></trkpt><trkpt lat="44.41088969886315" lon="10.834088565758371"><ele>687.0</ele><time>2026-04-20T14:20:19.999Z</time></trkpt><trkpt lat="44.410778127968385" lon="10.83395461733181"><ele>687.0</ele><time>2026-04-20T14:20:20.999Z</time></trkpt><trkpt lat="44.4106572948178" lon="10.833779506674464"><ele>687.0</ele><time>2026-04-20T14:20:21.999Z</time></trkpt><trkpt lat="44.41052895774082" lon="10.83360677678902"><ele>686.3333333333334</ele><time>2026-04-20T14:20:22.999Z</time></trkpt><trkpt lat="44.410402267738725" lon="10.83341869169619"><ele>685.6666666666667</ele><time>2026-04-20T14:20:23.999Z</time></trkpt><trkpt lat="44.41027125684637" lon="10.833250320596857"><ele>685.0</ele><time>2026-04-20T14:20:24.999Z</time></trkpt><trkpt lat="44.410130315739934" lon="10.833130232167491"><ele>685.0</ele><time>2026-04-20T14:20:25.999Z</time></trkpt><trkpt lat="44.40998187560983" lon="10.833056969633825"><ele>685.0</ele><time>2026-04-20T14:20:26.999Z</time></trkpt><trkpt lat="44.40982939986699" lon="10.833027978139718"><ele>685.0</ele><time>2026-04-20T14:20:27.999Z</time></trkpt><trkpt lat="44.40970469088209" lon="10.833045392873444"><ele>685.0</ele><time>2026-04-20T14:20:28.999Z</time></trkpt><trkpt lat="44.409611849083255" lon="10.833107206061655"><ele>682.0</ele><time>2026-04-20T14:20:29.999Z</time></trkpt><trkpt lat="44.40959743423138" lon="10.833224540025913"><ele>679.0</ele><time>2026-04-20T14:20:30.999Z</time></trkpt><trkpt lat="44.40960526541874" lon="10.833338828799967"><ele>676.0</ele><time>2026-04-20T14:20:31.999Z</time></trkpt><trkpt lat="44.40965364212373" lon="10.83345160850572"><ele>673.0</ele><time>2026-04-20T14:20:32.999Z</time></trkpt><trkpt lat="44.40975788109869" lon="10.833567686668978"><ele>670.0</ele><time>2026-04-20T14:20:33.999Z</time></trkpt><trkpt lat="44.40986816935313" lon="10.833684531539154"><ele>670.0</ele><time>2026-04-20T14:20:34.999Z</time></trkpt><trkpt lat="44.409990524231674" lon="10.833813827576677"><ele>670.0</ele><time>2026-04-20T14:20:35.999Z</time></trkpt><trkpt lat="44.410114589461195" lon="10.833962560931164"><ele>670.0</ele><time>2026-04-20T14:20:36.999Z</time></trkpt><trkpt lat="44.41022648037996" lon="10.834142131441082"><ele>671.6666666666667</ele><time>2026-04-20T14:20:37.999Z</time></trkpt><trkpt lat="44.41032526056823" lon="10.834352260382095"><ele>673.3333333333334</ele><time>2026-04-20T14:20:38.999Z</time></trkpt><trkpt lat="44.410418745697214" lon="10.834599900581683"><ele>675.0</ele><time>2026-04-20T14:20:39.999Z</time></trkpt><trkpt lat="44.41050670436419" lon="10.834865165715184"><ele>675.0</ele><time>2026-04-20T14:20:40.999Z</time></trkpt><trkpt lat="44.410589517357494" lon="10.83511654592749"><ele>675.0</ele><time>2026-04-20T14:20:41.999Z</time></trkpt><trkpt lat="44.41066959316442" lon="10.835353658213048"><ele>675.0</ele><time>2026-04-20T14:20:42.999Z</time></trkpt><trkpt lat="44.41074802670676" lon="10.835579117862991"><ele>670.6666666666666</ele><time>2026-04-20T14:20:43.999Z</time></trkpt><trkpt lat="44.41082347469555" lon="10.83579492291867"><ele>666.3333333333333</ele><time>2026-04-20T14:20:44.999Z</time></trkpt><trkpt lat="44.410886817993045" lon="10.835985214855357"><ele>662.0</ele><time>2026-04-20T14:20:45.999Z</time></trkpt><trkpt lat="44.41095888737332" lon="10.836137537617573"><ele>659.25</ele><time>2026-04-20T14:20:46.999Z</time></trkpt><trkpt lat="44.41106904975369" lon="10.836255247470486"><ele>656.5</ele><time>2026-04-20T14:20:47.999Z</time></trkpt><trkpt lat="44.41120837217256" lon="10.836333783865584"><ele>653.75</ele><time>2026-04-20T14:20:48.999Z</time></trkpt><trkpt lat="44.41133834604917" lon="10.836394927916432"><ele>651.0</ele><time>2026-04-20T14:20:49.999Z</time></trkpt><trkpt lat="44.411439996623194" lon="10.836475001721942"><ele>651.0</ele><time>2026-04-20T14:20:50.999Z</time></trkpt><trkpt lat="44.411495368592924" lon="10.836587784419795"><ele>651.0</ele><time>2026-04-20T14:20:52Z</time></trkpt><trkpt lat="44.41151102659068" lon="10.836727486144255"><ele>651.0</ele><time>2026-04-20T14:20:53Z</time></trkpt><trkpt lat="44.41149935977975" lon="10.836895043320695"><ele>651.0</ele><time>2026-04-20T14:20:54Z</time></trkpt><trkpt lat="44.41147630930855" lon="10.837056265772784"><ele>651.0</ele><time>2026-04-20T14:20:55Z</time></trkpt><trkpt lat="44.41144227810377" lon="10.837221195241595"><ele>648.5</ele><time>2026-04-20T14:20:56Z</time></trkpt><trkpt lat="44.411373181077145" lon="10.837368831330304"><ele>646.0</ele><time>2026-04-20T14:20:57Z</time></trkpt><trkpt lat="44.41126078894864" lon="10.837462324942654"><ele>643.5</ele><time>2026-04-20T14:20:58Z</time></trkpt><trkpt lat="44.41111877731902" lon="10.837485450683506"><ele>641.0</ele><time>2026-04-20T14:20:59Z</time></trkpt><trkpt lat="44.41097254976863" lon="10.837470540767319"><ele>640.5</ele><time>2026-04-20T14:21:00Z</time></trkpt><trkpt lat="44.41083949756597" lon="10.837398412308586"><ele>640.0</ele><time>2026-04-20T14:21:01Z</time></trkpt><trkpt lat="44.410729469012054" lon="10.837258349055332"><ele>639.5</ele><time>2026-04-20T14:21:02Z</time></trkpt><trkpt lat="44.410657696808926" lon="10.837074072905828"><ele>639.0</ele><time>2026-04-20T14:21:03Z</time></trkpt><trkpt lat="44.41058194213739" lon="10.836879963502792"><ele>636.75</ele><time>2026-04-20T14:21:04Z</time></trkpt><trkpt lat="44.41051498248255" lon="10.836712529966245"><ele>634.5</ele><time>2026-04-20T14:21:05Z</time></trkpt><trkpt lat="44.41042142031667" lon="10.836542525124077"><ele>632.25</ele><time>2026-04-20T14:21:06Z</time></trkpt><trkpt lat="44.41030950201388" lon="10.836395742694508"><ele>630.0</ele><time>2026-04-20T14:21:07Z</time></trkpt><trkpt lat="44.41012200004742" lon="10.83622666600276"><ele>630.0</ele><time>2026-04-20T14:21:08Z</time></trkpt><trkpt lat="44.409947674842165" lon="10.836137893372358"><ele>630.0</ele><time>2026-04-20T14:21:09Z</time></trkpt><trkpt lat="44.40976874562663" lon="10.836074513000822"><ele>630.0</ele><time>2026-04-20T14:21:10Z</time></trkpt><trkpt lat="44.4096164720445" lon="10.835992943528701"><ele>630.0</ele><time>2026-04-20T14:21:11Z</time></trkpt><trkpt lat="44.409475381822645" lon="10.835900838174418"><ele>630.0</ele><time>2026-04-20T14:21:12Z</time></trkpt><trkpt lat="44.409340984657824" lon="10.835824893863311"><ele>630.0</ele><time>2026-04-20T14:21:13Z</time></trkpt><trkpt lat="44.409221057390795" lon="10.835767176460196"><ele>630.0</ele><time>2026-04-20T14:21:14Z</time></trkpt><trkpt lat="44.40911480401519" lon="10.83575808904541"><ele>630.0</ele><time>2026-04-20T14:21:15Z</time></trkpt><trkpt lat="44.40902364818892" lon="10.835803122837248"><ele>630.0</ele><time>2026-04-20T14:21:16Z</time></trkpt><trkpt lat="44.40895799238877" lon="10.835916060053574"><ele>630.0</ele><time>2026-04-20T14:21:17Z</time></trkpt><trkpt lat="44.408938593699524" lon="10.836076233626981"><ele>630.0</ele><time>2026-04-20T14:21:18Z</time></trkpt><trkpt lat="44.40897552077908" lon="10.836258971867466"><ele>626.3333333333334</ele><time>2026-04-20T14:21:19Z</time></trkpt><trkpt lat="44.409058797264535" lon="10.836443149527613"><ele>622.6666666666667</ele><time>2026-04-20T14:21:20Z</time></trkpt><trkpt lat="44.409156751126865" lon="10.836639382430155"><ele>619.0</ele><time>2026-04-20T14:21:21Z</time></trkpt><trkpt lat="44.40924814342803" lon="10.83683782399893"><ele>617.6666666666667</ele><time>2026-04-20T14:21:22Z</time></trkpt><trkpt lat="44.409319103509624" lon="10.837027890099023"><ele>616.3333333333334</ele><time>2026-04-20T14:21:23Z</time></trkpt><trkpt lat="44.40934522584012" lon="10.837230451366649"><ele>615.0</ele><time>2026-04-20T14:21:24Z</time></trkpt><trkpt lat="44.40933285387049" lon="10.83744834058721"><ele>612.3333333333334</ele><time>2026-04-20T14:21:25Z</time></trkpt><trkpt lat="44.40934433473597" lon="10.837679745408197"><ele>609.6666666666667</ele><time>2026-04-20T14:21:26Z</time></trkpt><trkpt lat="44.40934145768624" lon="10.837902362012764"><ele>607.0</ele><time>2026-04-20T14:21:27Z</time></trkpt><trkpt lat="44.40934605634028" lon="10.838110804666353"><ele>607.0</ele><time>2026-04-20T14:21:28Z</time></trkpt><trkpt lat="44.40935181211896" lon="10.838290232229635"><ele>607.0</ele><time>2026-04-20T14:21:29Z</time></trkpt><trkpt lat="44.40932925113881" lon="10.838416400303046"><ele>607.0</ele><time>2026-04-20T14:21:30Z</time></trkpt><trkpt lat="44.40927291625876" lon="10.838534705689566"><ele>607.0</ele><time>2026-04-20T14:21:31Z</time></trkpt><trkpt lat="44.409172111646704" lon="10.83861049227758"><ele>607.0</ele><time>2026-04-20T14:21:32Z</time></trkpt><trkpt lat="44.4090392239867" lon="10.838634947560806"><ele>605.6666666666667</ele><time>2026-04-20T14:21:33Z</time></trkpt><trkpt lat="44.40890000747926" lon="10.838697739256773"><ele>604.3333333333334</ele><time>2026-04-20T14:21:34Z</time></trkpt><trkpt lat="44.408744661887816" lon="10.838757778633004"><ele>603.0</ele><time>2026-04-20T14:21:35Z</time></trkpt><trkpt lat="44.40859326801754" lon="10.838815857642397"><ele>602.25</ele><time>2026-04-20T14:21:36Z</time></trkpt><trkpt lat="44.40845308525982" lon="10.838868447385902"><ele>601.5</ele><time>2026-04-20T14:21:37Z</time></trkpt><trkpt lat="44.408320977923495" lon="10.838904977459796"><ele>600.75</ele><time>2026-04-20T14:21:38Z</time></trkpt><trkpt lat="44.4082055635325" lon="10.83891086460874"><ele>600.0</ele><time>2026-04-20T14:21:39Z</time></trkpt><trkpt lat="44.40811991171009" lon="10.838871190734809"><ele>600.0</ele><time>2026-04-20T14:21:40Z</time></trkpt><trkpt lat="44.408075543646596" lon="10.83880678313155"><ele>600.0</ele><time>2026-04-20T14:21:41Z</time></trkpt><trkpt lat="44.40802919033133" lon="10.838538713887688"><ele>600.0</ele><time>2026-04-20T14:21:44Z</time></trkpt><trkpt lat="44.40803375093924" lon="10.838404904775427"><ele>600.0</ele><time>2026-04-20T14:21:45Z</time></trkpt><trkpt lat="44.40804773850468" lon="10.838268188128229"><ele>600.6666666666666</ele><time>2026-04-20T14:21:46Z</time></trkpt><trkpt lat="44.40804769630073" lon="10.838157236463243"><ele>601.3333333333334</ele><time>2026-04-20T14:21:47Z</time></trkpt><trkpt lat="44.40804099413703" lon="10.83806645280008"><ele>602.0</ele><time>2026-04-20T14:21:48Z</time></trkpt><trkpt lat="44.40801253898978" lon="10.837944980558703"><ele>602.6666666666667</ele><time>2026-04-20T14:21:50Z</time></trkpt><trkpt lat="44.407965893351594" lon="10.837884788864665"><ele>603.3333333333334</ele><time>2026-04-20T14:21:52Z</time></trkpt><trkpt lat="44.407914004133225" lon="10.837801331318115"><ele>604.0</ele><time>2026-04-20T14:21:55Z</time></trkpt><trkpt lat="44.40783853738649" lon="10.837753261829626"><ele>602.0</ele><time>2026-04-20T14:22:00Z</time></trkpt><trkpt lat="44.407767303495184" lon="10.837766787514884"><ele>600.0</ele><time>2026-04-20T14:22:11Z</time></trkpt><trkpt lat="44.407735253179005" lon="10.837944362963626"><ele>598.0</ele><time>2026-04-20T14:22:13Z</time></trkpt><trkpt lat="44.4077346354542" lon="10.838090831477464"><ele>596.0</ele><time>2026-04-20T14:22:15Z</time></trkpt><trkpt lat="44.40773522852521" lon="10.83825417171564"><ele>594.0</ele><time>2026-04-20T14:22:17Z</time></trkpt><trkpt lat="44.40773781086921" lon="10.838367716758235"><ele>593.5</ele><time>2026-04-20T14:22:18Z</time></trkpt><trkpt lat="44.40772995134392" lon="10.838519590738699"><ele>593.0</ele><time>2026-04-20T14:22:19Z</time></trkpt><trkpt lat="44.40770957320239" lon="10.838688561030436"><ele>592.5</ele><time>2026-04-20T14:22:20Z</time></trkpt><trkpt lat="44.407678487318705" lon="10.83886154082985"><ele>592.0</ele><time>2026-04-20T14:22:21Z</time></trkpt><trkpt lat="44.40762102266477" lon="10.839014633457497"><ele>592.0</ele><time>2026-04-20T14:22:21.999Z</time></trkpt><trkpt lat="44.407534788651574" lon="10.839140109217762"><ele>592.0</ele><time>2026-04-20T14:22:22.999Z</time></trkpt><trkpt lat="44.40743699744035" lon="10.83928045089071"><ele>592.0</ele><time>2026-04-20T14:22:23.999Z</time></trkpt><trkpt lat="44.40735958449892" lon="10.839483217521956"><ele>592.0</ele><time>2026-04-20T14:22:24.999Z</time></trkpt><trkpt lat="44.40732130654376" lon="10.839723190521957"><ele>592.3333333333334</ele><time>2026-04-20T14:22:25.999Z</time></trkpt><trkpt lat="44.40730834002407" lon="10.839957661031569"><ele>592.6666666666666</ele><time>2026-04-20T14:22:26.999Z</time></trkpt><trkpt lat="44.40731071247151" lon="10.840189061428061"><ele>593.0</ele><time>2026-04-20T14:22:27.999Z</time></trkpt><trkpt lat="44.40733085824129" lon="10.840425656893043"><ele>591.3333333333333</ele><time>2026-04-20T14:22:28.999Z</time></trkpt><trkpt lat="44.40737213687444" lon="10.840666724407269"><ele>589.6666666666666</ele><time>2026-04-20T14:22:29.999Z</time></trkpt><trkpt lat="44.40743833562596" lon="10.840918072919601"><ele>588.0</ele><time>2026-04-20T14:22:30.999Z</time></trkpt><trkpt lat="44.407504602552265" lon="10.841175002783174"><ele>588.0</ele><time>2026-04-20T14:22:31.999Z</time></trkpt><trkpt lat="44.40755912992535" lon="10.84142114522239"><ele>588.0</ele><time>2026-04-20T14:22:32.999Z</time></trkpt><trkpt lat="44.407604730528526" lon="10.841659355837898"><ele>588.0</ele><time>2026-04-20T14:22:33.999Z</time></trkpt><trkpt lat="44.407649232607504" lon="10.841891212464782"><ele>589.3333333333334</ele><time>2026-04-20T14:22:34.999Z</time></trkpt><trkpt lat="44.407691838675305" lon="10.84210598319335"><ele>590.6666666666667</ele><time>2026-04-20T14:22:35.999Z</time></trkpt><trkpt lat="44.40773397027276" lon="10.842305166130956"><ele>592.0</ele><time>2026-04-20T14:22:36.999Z</time></trkpt><trkpt lat="44.40777680368542" lon="10.842495904417472"><ele>592.25</ele><time>2026-04-20T14:22:37.999Z</time></trkpt><trkpt lat="44.40781582755555" lon="10.842686091379578"><ele>592.5</ele><time>2026-04-20T14:22:38.999Z</time></trkpt><trkpt lat="44.40785395023652" lon="10.842863916853812"><ele>592.75</ele><time>2026-04-20T14:22:39.999Z</time></trkpt><trkpt lat="44.40790511595012" lon="10.843021373860209"><ele>593.0</ele><time>2026-04-20T14:22:40.999Z</time></trkpt><trkpt lat="44.40797251248516" lon="10.843146794008042"><ele>592.75</ele><time>2026-04-20T14:22:41.999Z</time></trkpt><trkpt lat="44.40805798054045" lon="10.843253027780698"><ele>592.5</ele><time>2026-04-20T14:22:42.999Z</time></trkpt><trkpt lat="44.408163375741516" lon="10.84336281650521"><ele>592.25</ele><time>2026-04-20T14:22:43.999Z</time></trkpt><trkpt lat="44.40827442537624" lon="10.843466640117127"><ele>592.0</ele><time>2026-04-20T14:22:44.999Z</time></trkpt><trkpt lat="44.408388190412126" lon="10.843571733423612"><ele>592.0</ele><time>2026-04-20T14:22:45.999Z</time></trkpt><trkpt lat="44.408503851290014" lon="10.84369053243584"><ele>592.0</ele><time>2026-04-20T14:22:46.999Z</time></trkpt><trkpt lat="44.408622633797194" lon="10.843821649311034"><ele>592.0</ele><time>2026-04-20T14:22:47.999Z</time></trkpt><trkpt lat="44.40873752379344" lon="10.843973587569963"><ele>589.3333333333334</ele><time>2026-04-20T14:22:48.999Z</time></trkpt><trkpt lat="44.40884808886757" lon="10.844151216169417"><ele>586.6666666666666</ele><time>2026-04-20T14:22:49.999Z</time></trkpt><trkpt lat="44.40895551293076" lon="10.84434848443781"><ele>584.0</ele><time>2026-04-20T14:22:50.999Z</time></trkpt><trkpt lat="44.40906792523377" lon="10.844570466821443"><ele>584.0</ele><time>2026-04-20T14:22:51.999Z</time></trkpt><trkpt lat="44.409178560716576" lon="10.84477601066381"><ele>584.0</ele><time>2026-04-20T14:22:52.999Z</time></trkpt><trkpt lat="44.409289126993244" lon="10.844978212539685"><ele>584.0</ele><time>2026-04-20T14:22:53.999Z</time></trkpt><trkpt lat="44.40942146805173" lon="10.84519810762687"><ele>588.0</ele><time>2026-04-20T14:22:54.999Z</time></trkpt><trkpt lat="44.409582333306965" lon="10.845465996804355"><ele>592.0</ele><time>2026-04-20T14:22:55.999Z</time></trkpt><trkpt lat="44.40974014172223" lon="10.845755839485088"><ele>586.5</ele><time>2026-04-20T14:22:57Z</time></trkpt><trkpt lat="44.40989849256907" lon="10.846079485542967"><ele>581.0</ele><time>2026-04-20T14:22:58Z</time></trkpt><trkpt lat="44.41005876786638" lon="10.846396362010148"><ele>581.0</ele><time>2026-04-20T14:22:59Z</time></trkpt><trkpt lat="44.41019990855588" lon="10.846670093336435"><ele>581.0</ele><time>2026-04-20T14:23:00Z</time></trkpt><trkpt lat="44.410340730673056" lon="10.846944706112199"><ele>581.5</ele><time>2026-04-20T14:23:01Z</time></trkpt><trkpt lat="44.41047531213326" lon="10.84720492721278"><ele>582.0</ele><time>2026-04-20T14:23:02Z</time></trkpt><trkpt lat="44.41061225528908" lon="10.847451606282354"><ele>579.6666666666666</ele><time>2026-04-20T14:23:03Z</time></trkpt><trkpt lat="44.41075131476711" lon="10.847692918959279"><ele>577.3333333333333</ele><time>2026-04-20T14:23:04Z</time></trkpt><trkpt lat="44.41090605562455" lon="10.847919066141815"><ele>575.0</ele><time>2026-04-20T14:23:05Z</time></trkpt><trkpt lat="44.41107217325319" lon="10.848121179234768"><ele>575.0</ele><time>2026-04-20T14:23:06Z</time></trkpt><trkpt lat="44.41124978047146" lon="10.84832485111585"><ele>575.0</ele><time>2026-04-20T14:23:07Z</time></trkpt><trkpt lat="44.411410359230494" lon="10.848517018933002"><ele>575.0</ele><time>2026-04-20T14:23:08Z</time></trkpt><trkpt lat="44.41157624896673" lon="10.848681353130656"><ele>572.0</ele><time>2026-04-20T14:23:09Z</time></trkpt><trkpt lat="44.41176043572211" lon="10.848790318943252"><ele>569.0</ele><time>2026-04-20T14:23:10Z</time></trkpt><trkpt lat="44.41196011544801" lon="10.848871211079475"><ele>566.0</ele><time>2026-04-20T14:23:11Z</time></trkpt><trkpt lat="44.41214758174016" lon="10.848939395018936"><ele>564.3333333333333</ele><time>2026-04-20T14:23:12Z</time></trkpt><trkpt lat="44.41230508565122" lon="10.84902060687773"><ele>562.6666666666666</ele><time>2026-04-20T14:23:13Z</time></trkpt><trkpt lat="44.412439289294774" lon="10.849130767968646"><ele>561.0</ele><time>2026-04-20T14:23:14Z</time></trkpt><trkpt lat="44.4125545351603" lon="10.849286239959522"><ele>560.3333333333334</ele><time>2026-04-20T14:23:15Z</time></trkpt><trkpt lat="44.41264523588783" lon="10.849483765081866"><ele>559.6666666666667</ele><time>2026-04-20T14:23:16Z</time></trkpt><trkpt lat="44.412727081747356" lon="10.849699687998951"><ele>559.0</ele><time>2026-04-20T14:23:17Z</time></trkpt><trkpt lat="44.412852056450355" lon="10.849858296219216"><ele>558.3333333333334</ele><time>2026-04-20T14:23:18Z</time></trkpt><trkpt lat="44.413005645745386" lon="10.84997796140452"><ele>557.6666666666666</ele><time>2026-04-20T14:23:19Z</time></trkpt><trkpt lat="44.41318229665321" lon="10.850047301026944"><ele>557.0</ele><time>2026-04-20T14:23:20Z</time></trkpt><trkpt lat="44.41336489200455" lon="10.8500839721765"><ele>557.0</ele><time>2026-04-20T14:23:21Z</time></trkpt><trkpt lat="44.413537164354004" lon="10.850109296901689"><ele>557.0</ele><time>2026-04-20T14:23:22Z</time></trkpt><trkpt lat="44.41369471353724" lon="10.85016583440615"><ele>557.0</ele><time>2026-04-20T14:23:23Z</time></trkpt><trkpt lat="44.41383378599651" lon="10.850284041603784"><ele>555.0</ele><time>2026-04-20T14:23:24Z</time></trkpt><trkpt lat="44.4139583635509" lon="10.850457179865865"><ele>553.0</ele><time>2026-04-20T14:23:25Z</time></trkpt><trkpt lat="44.41408328817789" lon="10.850651824411981"><ele>551.0</ele><time>2026-04-20T14:23:26Z</time></trkpt><trkpt lat="44.41421029970652" lon="10.850828169600431"><ele>549.3333333333333</ele><time>2026-04-20T14:23:27Z</time></trkpt><trkpt lat="44.41434848237274" lon="10.85100403867513"><ele>547.6666666666666</ele><time>2026-04-20T14:23:28Z</time></trkpt><trkpt lat="44.41450700024835" lon="10.851179278591129"><ele>546.0</ele><time>2026-04-20T14:23:29Z</time></trkpt><trkpt lat="44.41467023772131" lon="10.851318436910962"><ele>546.0</ele><time>2026-04-20T14:23:30Z</time></trkpt><trkpt lat="44.414852588173" lon="10.85143297931409"><ele>546.0</ele><time>2026-04-20T14:23:31Z</time></trkpt><trkpt lat="44.41502716380454" lon="10.851511182978335"><ele>546.0</ele><time>2026-04-20T14:23:32Z</time></trkpt><trkpt lat="44.41522040613202" lon="10.851564436283873"><ele>546.0</ele><time>2026-04-20T14:23:33Z</time></trkpt><trkpt lat="44.41542782275808" lon="10.851598025946071"><ele>546.0</ele><time>2026-04-20T14:23:34Z</time></trkpt><trkpt lat="44.41564844083639" lon="10.851621196379062"><ele>546.0</ele><time>2026-04-20T14:23:35Z</time></trkpt><trkpt lat="44.41587869251284" lon="10.851643980690318"><ele>546.0</ele><time>2026-04-20T14:23:36Z</time></trkpt><trkpt lat="44.416086713919846" lon="10.851671805984164"><ele>546.0</ele><time>2026-04-20T14:23:37Z</time></trkpt><trkpt lat="44.41627464922036" lon="10.851716549337235"><ele>546.0</ele><time>2026-04-20T14:23:38Z</time></trkpt><trkpt lat="44.41645008550439" lon="10.851780983907117"><ele>543.3333333333334</ele><time>2026-04-20T14:23:39Z</time></trkpt><trkpt lat="44.416624526232226" lon="10.85189566571079"><ele>540.6666666666667</ele><time>2026-04-20T14:23:40Z</time></trkpt><trkpt lat="44.416807102087475" lon="10.852037361708566"><ele>538.0</ele><time>2026-04-20T14:23:41Z</time></trkpt><trkpt lat="44.41699026427549" lon="10.852185524689197"><ele>539.6666666666667</ele><time>2026-04-20T14:23:42Z</time></trkpt><trkpt lat="44.41718620868701" lon="10.852315186290475"><ele>541.3333333333334</ele><time>2026-04-20T14:23:43Z</time></trkpt><trkpt lat="44.41738940678756" lon="10.852421110045702"><ele>543.0</ele><time>2026-04-20T14:23:44Z</time></trkpt><trkpt lat="44.41759883096385" lon="10.852494169745373"><ele>543.0</ele><time>2026-04-20T14:23:45Z</time></trkpt><trkpt lat="44.417817800620625" lon="10.852562981959077"><ele>543.0</ele><time>2026-04-20T14:23:46Z</time></trkpt><trkpt lat="44.41803396220733" lon="10.852620919308983"><ele>543.0</ele><time>2026-04-20T14:23:47Z</time></trkpt><trkpt lat="44.41825175517906" lon="10.852656888397295"><ele>541.3333333333334</ele><time>2026-04-20T14:23:48Z</time></trkpt><trkpt lat="44.41846611234167" lon="10.852669550367239"><ele>539.6666666666667</ele><time>2026-04-20T14:23:49Z</time></trkpt><trkpt lat="44.418673553934106" lon="10.852657823135015"><ele>538.0</ele><time>2026-04-20T14:23:50Z</time></trkpt><trkpt lat="44.41886959954661" lon="10.85263052711656"><ele>538.0</ele><time>2026-04-20T14:23:51Z</time></trkpt><trkpt lat="44.41904969743425" lon="10.852610970335588"><ele>538.0</ele><time>2026-04-20T14:23:52Z</time></trkpt><trkpt lat="44.41922435641828" lon="10.852641232798577"><ele>538.0</ele><time>2026-04-20T14:23:53Z</time></trkpt><trkpt lat="44.419407675177766" lon="10.85273295818906"><ele>538.0</ele><time>2026-04-20T14:23:54Z</time></trkpt><trkpt lat="44.41960527206857" lon="10.852858818255092"><ele>538.0</ele><time>2026-04-20T14:23:55Z</time></trkpt><trkpt lat="44.41981338581158" lon="10.852980937932669"><ele>538.0</ele><time>2026-04-20T14:23:56Z</time></trkpt><trkpt lat="44.420026854135166" lon="10.853094866447973"><ele>537.6666666666667</ele><time>2026-04-20T14:23:57Z</time></trkpt><trkpt lat="44.42022249078282" lon="10.853199394477992"><ele>537.3333333333334</ele><time>2026-04-20T14:23:58Z</time></trkpt><trkpt lat="44.420425784508915" lon="10.853318483884953"><ele>537.0</ele><time>2026-04-20T14:23:59Z</time></trkpt><trkpt lat="44.42061106268727" lon="10.853481562775471"><ele>537.0</ele><time>2026-04-20T14:24:00Z</time></trkpt><trkpt lat="44.420806841617654" lon="10.853675339985823"><ele>537.0</ele><time>2026-04-20T14:24:01Z</time></trkpt><trkpt lat="44.4209727579191" lon="10.853886956733406"><ele>537.0</ele><time>2026-04-20T14:24:02Z</time></trkpt><trkpt lat="44.42111740212769" lon="10.854069870257097"><ele>537.0</ele><time>2026-04-20T14:24:03Z</time></trkpt><trkpt lat="44.421222784858" lon="10.854290937008185"><ele>537.0</ele><time>2026-04-20T14:24:04Z</time></trkpt><trkpt lat="44.421301220723116" lon="10.854555141970957"><ele>537.0</ele><time>2026-04-20T14:24:05Z</time></trkpt><trkpt lat="44.4214191501659" lon="10.85479537158449"><ele>537.0</ele><time>2026-04-20T14:24:06Z</time></trkpt><trkpt lat="44.421573501343225" lon="10.855036455018686"><ele>537.0</ele><time>2026-04-20T14:24:07Z</time></trkpt><trkpt lat="44.4217413619288" lon="10.855257586994938"><ele>537.0</ele><time>2026-04-20T14:24:08Z</time></trkpt><trkpt lat="44.421913410998194" lon="10.855472411294684"><ele>537.0</ele><time>2026-04-20T14:24:09Z</time></trkpt><trkpt lat="44.422084134020444" lon="10.855655569005656"><ele>537.0</ele><time>2026-04-20T14:24:10Z</time></trkpt><trkpt lat="44.422265697167845" lon="10.855824448938764"><ele>537.3333333333334</ele><time>2026-04-20T14:24:11Z</time></trkpt><trkpt lat="44.42244506661196" lon="10.855964439715905"><ele>537.6666666666667</ele><time>2026-04-20T14:24:12Z</time></trkpt><trkpt lat="44.42261849302081" lon="10.8561015176795"><ele>538.0</ele><time>2026-04-20T14:24:13Z</time></trkpt><trkpt lat="44.4227891044232" lon="10.856277549034099"><ele>538.0</ele><time>2026-04-20T14:24:14Z</time></trkpt><trkpt lat="44.422967394340624" lon="10.856478979643844"><ele>538.0</ele><time>2026-04-20T14:24:15Z</time></trkpt><trkpt lat="44.423157924744366" lon="10.85667372767412"><ele>539.0</ele><time>2026-04-20T14:24:16Z</time></trkpt><trkpt lat="44.42336412336787" lon="10.85682658107882"><ele>540.0</ele><time>2026-04-20T14:24:17Z</time></trkpt><trkpt lat="44.42355212173761" lon="10.856978553767226"><ele>540.0</ele><time>2026-04-20T14:24:18Z</time></trkpt><trkpt lat="44.42368449220016" lon="10.857126918048424"><ele>540.0</ele><time>2026-04-20T14:24:19Z</time></trkpt><trkpt lat="44.423790019973964" lon="10.85722554760881"><ele>540.0</ele><time>2026-04-20T14:24:20Z</time></trkpt><trkpt lat="44.42389141783726" lon="10.857268389961485"><ele>540.0</ele><time>2026-04-20T14:24:21Z</time></trkpt><trkpt lat="44.42399804247833" lon="10.857236314689098"><ele>541.3333333333334</ele><time>2026-04-20T14:24:22Z</time></trkpt><trkpt lat="44.42411021463645" lon="10.857134320249878"><ele>542.6666666666667</ele><time>2026-04-20T14:24:23Z</time></trkpt><trkpt lat="44.42422594745444" lon="10.85698715402499"><ele>544.0</ele><time>2026-04-20T14:24:24Z</time></trkpt><trkpt lat="44.424364115955214" lon="10.856872820152164"><ele>544.0</ele><time>2026-04-20T14:24:25Z</time></trkpt><trkpt lat="44.42454663125835" lon="10.856834316651813"><ele>544.0</ele><time>2026-04-20T14:24:26Z</time></trkpt><trkpt lat="44.42474505643013" lon="10.856862753478543"><ele>544.0</ele><time>2026-04-20T14:24:27Z</time></trkpt><trkpt lat="44.42496205532112" lon="10.856914459633833"><ele>544.5</ele><time>2026-04-20T14:24:28Z</time></trkpt><trkpt lat="44.42518052654956" lon="10.856946129241289"><ele>545.0</ele><time>2026-04-20T14:24:29Z</time></trkpt><trkpt lat="44.42541131243645" lon="10.856959432786539"><ele>547.0</ele><time>2026-04-20T14:24:30Z</time></trkpt><trkpt lat="44.42565422895694" lon="10.856958812870559"><ele>549.0</ele><time>2026-04-20T14:24:31Z</time></trkpt><trkpt lat="44.425880123456096" lon="10.85694157061406"><ele>549.0</ele><time>2026-04-20T14:24:32Z</time></trkpt><trkpt lat="44.42608238380298" lon="10.856914415377716"><ele>549.0</ele><time>2026-04-20T14:24:33Z</time></trkpt><trkpt lat="44.42625855787237" lon="10.856880043986612"><ele>549.0</ele><time>2026-04-20T14:24:34Z</time></trkpt><trkpt lat="44.42640094810796" lon="10.85686336221395"><ele>552.25</ele><time>2026-04-20T14:24:35Z</time></trkpt><trkpt lat="44.42651696956408" lon="10.856890919794528"><ele>555.5</ele><time>2026-04-20T14:24:36Z</time></trkpt><trkpt lat="44.426614040660965" lon="10.856990052855862"><ele>558.75</ele><time>2026-04-20T14:24:37Z</time></trkpt><trkpt lat="44.42666328355474" lon="10.857180187968286"><ele>562.0</ele><time>2026-04-20T14:24:38Z</time></trkpt><trkpt lat="44.42668238666836" lon="10.857397460499149"><ele>563.0</ele><time>2026-04-20T14:24:39Z</time></trkpt><trkpt lat="44.42667611112362" lon="10.857646574623072"><ele>564.0</ele><time>2026-04-20T14:24:40Z</time></trkpt><trkpt lat="44.426677812725345" lon="10.85788194111923"><ele>565.0</ele><time>2026-04-20T14:24:41Z</time></trkpt><trkpt lat="44.42663278715355" lon="10.858108871398382"><ele>565.0</ele><time>2026-04-20T14:24:42Z</time></trkpt><trkpt lat="44.426562224510846" lon="10.858339856085376"><ele>565.0</ele><time>2026-04-20T14:24:43Z</time></trkpt><trkpt lat="44.4265176630951" lon="10.858577204014173"><ele>565.0</ele><time>2026-04-20T14:24:43.999Z</time></trkpt><trkpt lat="44.426515522993874" lon="10.8588403488627"><ele>565.6666666666667</ele><time>2026-04-20T14:24:44.999Z</time></trkpt><trkpt lat="44.426526763733534" lon="10.859086365451992"><ele>566.3333333333334</ele><time>2026-04-20T14:24:45.999Z</time></trkpt><trkpt lat="44.42655543356799" lon="10.85930731738511"><ele>567.0</ele><time>2026-04-20T14:24:46.999Z</time></trkpt><trkpt lat="44.426599340682806" lon="10.859528258482792"><ele>567.6666666666666</ele><time>2026-04-20T14:24:47.999Z</time></trkpt><trkpt lat="44.4266444079245" lon="10.859759030063723"><ele>568.3333333333333</ele><time>2026-04-20T14:24:48.999Z</time></trkpt><trkpt lat="44.426650848855076" lon="10.860026278987602"><ele>569.0</ele><time>2026-04-20T14:24:49.999Z</time></trkpt><trkpt lat="44.4266275297371" lon="10.860298500582674"><ele>569.0</ele><time>2026-04-20T14:24:50.999Z</time></trkpt><trkpt lat="44.42661099298938" lon="10.860577027695875"><ele>569.0</ele><time>2026-04-20T14:24:51.999Z</time></trkpt><trkpt lat="44.42660987042447" lon="10.86084961797635"><ele>569.0</ele><time>2026-04-20T14:24:52.999Z</time></trkpt><trkpt lat="44.42661769223894" lon="10.861108636164113"><ele>568.0</ele><time>2026-04-20T14:24:53.999Z</time></trkpt><trkpt lat="44.42664700227036" lon="10.861344593693529"><ele>567.0</ele><time>2026-04-20T14:24:54.999Z</time></trkpt><trkpt lat="44.426705596787414" lon="10.861531450340655"><ele>566.0</ele><time>2026-04-20T14:24:55.999Z</time></trkpt><trkpt lat="44.42677247518727" lon="10.86170225195926"><ele>565.0</ele><time>2026-04-20T14:24:56.999Z</time></trkpt><trkpt lat="44.42681471532191" lon="10.861855335024886"><ele>564.0</ele><time>2026-04-20T14:24:57.999Z</time></trkpt><trkpt lat="44.42694612316099" lon="10.861878272413747"><ele>563.0</ele><time>2026-04-20T14:24:58.999Z</time></trkpt><trkpt lat="44.427093346117495" lon="10.861938202902454"><ele>562.0</ele><time>2026-04-20T14:24:59.999Z</time></trkpt><trkpt lat="44.427276914895224" lon="10.861941408315406"><ele>562.0</ele><time>2026-04-20T14:25:00.999Z</time></trkpt><trkpt lat="44.427469741855525" lon="10.861994709072242"><ele>562.0</ele><time>2026-04-20T14:25:01.999Z</time></trkpt><trkpt lat="44.42765502744866" lon="10.862101632689836"><ele>562.0</ele><time>2026-04-20T14:25:03Z</time></trkpt><trkpt lat="44.42785214102127" lon="10.862227897458796"><ele>568.0</ele><time>2026-04-20T14:25:04Z</time></trkpt><trkpt lat="44.4280481164875" lon="10.862335522217355"><ele>574.0</ele><time>2026-04-20T14:25:05Z</time></trkpt><trkpt lat="44.428227813113686" lon="10.862428188518612"><ele>580.0</ele><time>2026-04-20T14:25:06Z</time></trkpt><trkpt lat="44.42838882247449" lon="10.862490912113211"><ele>580.0</ele><time>2026-04-20T14:25:07Z</time></trkpt><trkpt lat="44.42853954886849" lon="10.862537157536302"><ele>580.0</ele><time>2026-04-20T14:25:08Z</time></trkpt><trkpt lat="44.42866929750726" lon="10.862605964081272"><ele>580.0</ele><time>2026-04-20T14:25:09Z</time></trkpt><trkpt lat="44.428757866220245" lon="10.862739249298484"><ele>580.0</ele><time>2026-04-20T14:25:10Z</time></trkpt><trkpt lat="44.42883259693946" lon="10.862865562808018"><ele>579.2</ele><time>2026-04-20T14:25:11Z</time></trkpt><trkpt lat="44.42886500840012" lon="10.86300675886716"><ele>578.4</ele><time>2026-04-20T14:25:12Z</time></trkpt><trkpt lat="44.428833970391175" lon="10.863120932469169"><ele>577.6</ele><time>2026-04-20T14:25:13Z</time></trkpt><trkpt lat="44.428783497142405" lon="10.863216507108437"><ele>576.8</ele><time>2026-04-20T14:25:14Z</time></trkpt><trkpt lat="44.428671857744234" lon="10.863262369195635"><ele>576.0</ele><time>2026-04-20T14:25:15Z</time></trkpt><trkpt lat="44.42855626039279" lon="10.863241242376265"><ele>576.0</ele><time>2026-04-20T14:25:16Z</time></trkpt><trkpt lat="44.42861790247759" lon="10.863192786806485"><ele>576.0</ele><time>2026-04-20T14:25:22Z</time></trkpt><trkpt lat="44.42850835102007" lon="10.863221975558261"><ele>576.0</ele><time>2026-04-20T14:25:59Z</time></trkpt><trkpt lat="44.42842982903074" lon="10.863276963138004"><ele>576.0</ele><time>2026-04-20T14:26:00Z</time></trkpt><trkpt lat="44.42835368432803" lon="10.86338325944733"><ele>576.0</ele><time>2026-04-20T14:26:01Z</time></trkpt><trkpt lat="44.42831941436379" lon="10.863498887723624"><ele>574.4</ele><time>2026-04-20T14:26:02Z</time></trkpt><trkpt lat="44.428325753620484" lon="10.863615426705962"><ele>572.8</ele><time>2026-04-20T14:26:03Z</time></trkpt><trkpt lat="44.42837459697979" lon="10.863722442702715"><ele>571.1999999999999</ele><time>2026-04-20T14:26:04Z</time></trkpt><trkpt lat="44.428454248337324" lon="10.863791362575375"><ele>569.6</ele><time>2026-04-20T14:26:05Z</time></trkpt><trkpt lat="44.42856011126494" lon="10.863847245864175"><ele>568.0</ele><time>2026-04-20T14:26:06Z</time></trkpt><trkpt lat="44.42867294958283" lon="10.863896009067947"><ele>568.0</ele><time>2026-04-20T14:26:07Z</time></trkpt><trkpt lat="44.428786269155225" lon="10.863937513722503"><ele>568.0</ele><time>2026-04-20T14:26:08Z</time></trkpt><trkpt lat="44.428893301168166" lon="10.86398328243557"><ele>568.0</ele><time>2026-04-20T14:26:09Z</time></trkpt><trkpt lat="44.4289911867055" lon="10.864067022167538"><ele>568.0</ele><time>2026-04-20T14:26:10Z</time></trkpt><trkpt lat="44.42905754803729" lon="10.864222728621876"><ele>572.5</ele><time>2026-04-20T14:26:11Z</time></trkpt><trkpt lat="44.42908111467582" lon="10.86441748320029"><ele>577.0</ele><time>2026-04-20T14:26:12Z</time></trkpt><trkpt lat="44.429080759461485" lon="10.864621717586527"><ele>581.5</ele><time>2026-04-20T14:26:13Z</time></trkpt><trkpt lat="44.42907904502375" lon="10.864828988770793"><ele>586.0</ele><time>2026-04-20T14:26:14Z</time></trkpt><trkpt lat="44.429119319304206" lon="10.864999995559602"><ele>585.25</ele><time>2026-04-20T14:26:15Z</time></trkpt><trkpt lat="44.4292030941783" lon="10.865146927579145"><ele>584.5</ele><time>2026-04-20T14:26:16Z</time></trkpt><trkpt lat="44.42930757627886" lon="10.86527218518463"><ele>583.75</ele><time>2026-04-20T14:26:17Z</time></trkpt><trkpt lat="44.429388703073144" lon="10.865413189140174"><ele>583.0</ele><time>2026-04-20T14:26:18Z</time></trkpt><trkpt lat="44.42941273922742" lon="10.865589490301291"><ele>583.0</ele><time>2026-04-20T14:26:19Z</time></trkpt><trkpt lat="44.429369552535135" lon="10.865793466056187"><ele>583.0</ele><time>2026-04-20T14:26:20Z</time></trkpt><trkpt lat="44.429295602456754" lon="10.865964622112106"><ele>583.0</ele><time>2026-04-20T14:26:21Z</time></trkpt><trkpt lat="44.42923245591661" lon="10.866151529951466"><ele>583.0</ele><time>2026-04-20T14:26:22Z</time></trkpt><trkpt lat="44.42923993176158" lon="10.866367226527233"><ele>582.6666666666667</ele><time>2026-04-20T14:26:23Z</time></trkpt><trkpt lat="44.429305016021736" lon="10.866576633356042"><ele>582.3333333333334</ele><time>2026-04-20T14:26:24Z</time></trkpt><trkpt lat="44.429390114911286" lon="10.866767019035503"><ele>582.0</ele><time>2026-04-20T14:26:25Z</time></trkpt><trkpt lat="44.42950865401056" lon="10.866919518627894"><ele>579.25</ele><time>2026-04-20T14:26:26Z</time></trkpt><trkpt lat="44.42963149118322" lon="10.867039234789722"><ele>576.5</ele><time>2026-04-20T14:26:27Z</time></trkpt><trkpt lat="44.429751364658756" lon="10.86714112355216"><ele>573.75</ele><time>2026-04-20T14:26:28Z</time></trkpt><trkpt lat="44.42982929052994" lon="10.867293980843316"><ele>571.0</ele><time>2026-04-20T14:26:29Z</time></trkpt><trkpt lat="44.42984371385262" lon="10.867508968862664"><ele>577.75</ele><time>2026-04-20T14:26:30Z</time></trkpt><trkpt lat="44.42984026271316" lon="10.867730880183231"><ele>584.5</ele><time>2026-04-20T14:26:31Z</time></trkpt><trkpt lat="44.429838108858945" lon="10.867938757922188"><ele>591.25</ele><time>2026-04-20T14:26:32Z</time></trkpt><trkpt lat="44.42981813313478" lon="10.868133046102587"><ele>598.0</ele><time>2026-04-20T14:26:33Z</time></trkpt><trkpt lat="44.42973669985646" lon="10.868292211797012"><ele>597.0</ele><time>2026-04-20T14:26:34Z</time></trkpt><trkpt lat="44.42963252515965" lon="10.868445340637862"><ele>596.0</ele><time>2026-04-20T14:26:35Z</time></trkpt><trkpt lat="44.42949017714556" lon="10.868551010345007"><ele>595.0</ele><time>2026-04-20T14:26:36Z</time></trkpt><trkpt lat="44.42934130865234" lon="10.868643207171893"><ele>595.0</ele><time>2026-04-20T14:26:37Z</time></trkpt><trkpt lat="44.42918211771437" lon="10.868734523180338"><ele>595.0</ele><time>2026-04-20T14:26:38Z</time></trkpt><trkpt lat="44.429027174323515" lon="10.868848446040516"><ele>595.0</ele><time>2026-04-20T14:26:39Z</time></trkpt><trkpt lat="44.42889736141615" lon="10.868986411401249"><ele>590.0</ele><time>2026-04-20T14:26:40Z</time></trkpt><trkpt lat="44.428804882097864" lon="10.869154544623381"><ele>585.0</ele><time>2026-04-20T14:26:41Z</time></trkpt><trkpt lat="44.42874189924676" lon="10.869331030680216"><ele>580.0</ele><time>2026-04-20T14:26:42Z</time></trkpt><trkpt lat="44.428732297391015" lon="10.869491857880163"><ele>575.0</ele><time>2026-04-20T14:26:43Z</time></trkpt><trkpt lat="44.428768099691226" lon="10.869631137565905"><ele>579.75</ele><time>2026-04-20T14:26:44Z</time></trkpt><trkpt lat="44.42885730311916" lon="10.86973631781182"><ele>584.5</ele><time>2026-04-20T14:26:45Z</time></trkpt><trkpt lat="44.428981784747535" lon="10.86981688190397"><ele>589.25</ele><time>2026-04-20T14:26:46Z</time></trkpt><trkpt lat="44.42911603115139" lon="10.869910964029318"><ele>594.0</ele><time>2026-04-20T14:26:47Z</time></trkpt><trkpt lat="44.429251755576985" lon="10.870027212619508"><ele>590.6666666666666</ele><time>2026-04-20T14:26:48Z</time></trkpt><trkpt lat="44.42939510149888" lon="10.870134054349073"><ele>587.3333333333333</ele><time>2026-04-20T14:26:49Z</time></trkpt><trkpt lat="44.4295261017251" lon="10.870219124933385"><ele>584.0</ele><time>2026-04-20T14:26:50Z</time></trkpt><trkpt lat="44.42967004480632" lon="10.87026559518023"><ele>584.0</ele><time>2026-04-20T14:26:51Z</time></trkpt><trkpt lat="44.42981715601001" lon="10.870255128075952"><ele>584.0</ele><time>2026-04-20T14:26:52Z</time></trkpt><trkpt lat="44.42997444834022" lon="10.870216622896125"><ele>584.0</ele><time>2026-04-20T14:26:53Z</time></trkpt><trkpt lat="44.43012108689859" lon="10.870247633948976"><ele>584.0</ele><time>2026-04-20T14:26:54Z</time></trkpt><trkpt lat="44.43024052768499" lon="10.870372303086116"><ele>584.0</ele><time>2026-04-20T14:26:54.999Z</time></trkpt><trkpt lat="44.43035941724018" lon="10.870496018764989"><ele>584.0</ele><time>2026-04-20T14:26:55.999Z</time></trkpt><trkpt lat="44.43047255917357" lon="10.870606307999351"><ele>584.0</ele><time>2026-04-20T14:26:56.999Z</time></trkpt><trkpt lat="44.43061092704525" lon="10.870643252409797"><ele>585.6666666666666</ele><time>2026-04-20T14:26:57.999Z</time></trkpt><trkpt lat="44.430774585876364" lon="10.870626631950273"><ele>587.3333333333334</ele><time>2026-04-20T14:26:58.999Z</time></trkpt><trkpt lat="44.43094815728595" lon="10.870571153185777"><ele>589.0</ele><time>2026-04-20T14:26:59.999Z</time></trkpt><trkpt lat="44.43113455480252" lon="10.87052230321199"><ele>589.0</ele><time>2026-04-20T14:27:00.999Z</time></trkpt><trkpt lat="44.431326936228004" lon="10.870499722634682"><ele>589.0</ele><time>2026-04-20T14:27:01.999Z</time></trkpt><trkpt lat="44.43151367567075" lon="10.87052273889015"><ele>589.0</ele><time>2026-04-20T14:27:02.999Z</time></trkpt><trkpt lat="44.43169371835397" lon="10.870635235811774"><ele>589.0</ele><time>2026-04-20T14:27:03.999Z</time></trkpt><trkpt lat="44.431890110721994" lon="10.870722626397933"><ele>589.0</ele><time>2026-04-20T14:27:04.999Z</time></trkpt><trkpt lat="44.43210429840881" lon="10.870800966637677"><ele>589.0</ele><time>2026-04-20T14:27:05.999Z</time></trkpt><trkpt lat="44.432331822082055" lon="10.870847451184183"><ele>589.0</ele><time>2026-04-20T14:27:06.999Z</time></trkpt><trkpt lat="44.432567877250406" lon="10.87087682503575"><ele>589.0</ele><time>2026-04-20T14:27:08.001Z</time></trkpt><trkpt lat="44.43279315034975" lon="10.8708951457562"><ele>589.0</ele><time>2026-04-20T14:27:09.001Z</time></trkpt><trkpt lat="44.43301264544433" lon="10.870920539524668"><ele>589.0</ele><time>2026-04-20T14:27:10.001Z</time></trkpt><trkpt lat="44.43320757820694" lon="10.870903200202557"><ele>589.0</ele><time>2026-04-20T14:27:11.001Z</time></trkpt><trkpt lat="44.4333883170638" lon="10.87085577467596"><ele>589.0</ele><time>2026-04-20T14:27:12.001Z</time></trkpt><trkpt lat="44.43356181510099" lon="10.870759396821244"><ele>589.0</ele><time>2026-04-20T14:27:13.001Z</time></trkpt><trkpt lat="44.43372826152646" lon="10.870670503976198"><ele>589.0</ele><time>2026-04-20T14:27:14.001Z</time></trkpt><trkpt lat="44.43390308573877" lon="10.870649279318346"><ele>588.0</ele><time>2026-04-20T14:27:15.001Z</time></trkpt><trkpt lat="44.434090225015005" lon="10.87068183774216"><ele>587.0</ele><time>2026-04-20T14:27:16.001Z</time></trkpt><trkpt lat="44.43428045928503" lon="10.870727128976576"><ele>586.0</ele><time>2026-04-20T14:27:17.001Z</time></trkpt><trkpt lat="44.43448589644028" lon="10.87080302644671"><ele>588.0</ele><time>2026-04-20T14:27:18.001Z</time></trkpt><trkpt lat="44.43467850145119" lon="10.870875300127935"><ele>590.0</ele><time>2026-04-20T14:27:19.001Z</time></trkpt><trkpt lat="44.434872632773555" lon="10.870962593417241"><ele>592.0</ele><time>2026-04-20T14:27:20.001Z</time></trkpt><trkpt lat="44.435047509443734" lon="10.87109658111054"><ele>590.3333333333334</ele><time>2026-04-20T14:27:21.001Z</time></trkpt><trkpt lat="44.43520805754289" lon="10.871237225549901"><ele>588.6666666666666</ele><time>2026-04-20T14:27:22.001Z</time></trkpt><trkpt lat="44.4353548787485" lon="10.871375505470398"><ele>587.0</ele><time>2026-04-20T14:27:23.001Z</time></trkpt><trkpt lat="44.43547184892401" lon="10.871518961412393"><ele>587.0</ele><time>2026-04-20T14:27:24.001Z</time></trkpt><trkpt lat="44.43553990494368" lon="10.871697941523246"><ele>587.0</ele><time>2026-04-20T14:27:25.001Z</time></trkpt><trkpt lat="44.43554634350996" lon="10.871909209609392"><ele>587.0</ele><time>2026-04-20T14:27:26.001Z</time></trkpt><trkpt lat="44.43553270083002" lon="10.872137130926724"><ele>587.0</ele><time>2026-04-20T14:27:27Z</time></trkpt><trkpt lat="44.435490930288005" lon="10.872384976841555"><ele>587.0</ele><time>2026-04-20T14:27:28Z</time></trkpt><trkpt lat="44.43546569068064" lon="10.872652346800157"><ele>587.0</ele><time>2026-04-20T14:27:29Z</time></trkpt><trkpt lat="44.435471263331536" lon="10.872927917794678"><ele>587.3333333333333</ele><time>2026-04-20T14:27:30Z</time></trkpt><trkpt lat="44.435510861692514" lon="10.873223385683916"><ele>587.6666666666666</ele><time>2026-04-20T14:27:31Z</time></trkpt><trkpt lat="44.43557513052896" lon="10.873523443759959"><ele>588.0</ele><time>2026-04-20T14:27:32Z</time></trkpt><trkpt lat="44.43563879397371" lon="10.873828879617266"><ele>585.6666666666666</ele><time>2026-04-20T14:27:33Z</time></trkpt><trkpt lat="44.43568226809733" lon="10.874133419493289"><ele>583.3333333333333</ele><time>2026-04-20T14:27:34Z</time></trkpt><trkpt lat="44.435687914087445" lon="10.874429576864195"><ele>581.0</ele><time>2026-04-20T14:27:35Z</time></trkpt><trkpt lat="44.43565924634874" lon="10.874694543705004"><ele>579.3333333333333</ele><time>2026-04-20T14:27:36Z</time></trkpt><trkpt lat="44.435636398363414" lon="10.874971770824493"><ele>577.6666666666666</ele><time>2026-04-20T14:27:37Z</time></trkpt><trkpt lat="44.435659290603525" lon="10.875244952604403"><ele>576.0</ele><time>2026-04-20T14:27:38Z</time></trkpt><trkpt lat="44.4357297080094" lon="10.875521540481177"><ele>574.6666666666666</ele><time>2026-04-20T14:27:39Z</time></trkpt><trkpt lat="44.43580461568395" lon="10.875802507311485"><ele>573.3333333333333</ele><time>2026-04-20T14:27:40Z</time></trkpt><trkpt lat="44.435872924297094" lon="10.876079712776964"><ele>572.0</ele><time>2026-04-20T14:27:41Z</time></trkpt><trkpt lat="44.43594382145999" lon="10.876354278867103"><ele>570.3333333333333</ele><time>2026-04-20T14:27:42Z</time></trkpt><trkpt lat="44.436011240703785" lon="10.876608900314674"><ele>568.6666666666666</ele><time>2026-04-20T14:27:43Z</time></trkpt><trkpt lat="44.43606033460492" lon="10.876850512062873"><ele>567.0</ele><time>2026-04-20T14:27:44Z</time></trkpt><trkpt lat="44.436066049077674" lon="10.877085988410311"><ele>567.0</ele><time>2026-04-20T14:27:45Z</time></trkpt><trkpt lat="44.436017213208245" lon="10.877320252770527"><ele>567.0</ele><time>2026-04-20T14:27:46Z</time></trkpt><trkpt lat="44.435932959836954" lon="10.877554945678162"><ele>567.0</ele><time>2026-04-20T14:27:47Z</time></trkpt><trkpt lat="44.43585391922798" lon="10.877798572787372"><ele>567.0</ele><time>2026-04-20T14:27:48Z</time></trkpt><trkpt lat="44.43581575271364" lon="10.878085627696336"><ele>567.0</ele><time>2026-04-20T14:27:49Z</time></trkpt><trkpt lat="44.435803227270355" lon="10.878390196288224"><ele>567.0</ele><time>2026-04-20T14:27:50Z</time></trkpt><trkpt lat="44.43581799534815" lon="10.878700960356227"><ele>566.0</ele><time>2026-04-20T14:27:51Z</time></trkpt><trkpt lat="44.43584365549873" lon="10.879018133093108"><ele>565.0</ele><time>2026-04-20T14:27:52Z</time></trkpt><trkpt lat="44.435864595447434" lon="10.879335804627454"><ele>564.0</ele><time>2026-04-20T14:27:53Z</time></trkpt><trkpt lat="44.43588392600522" lon="10.879634316649916"><ele>563.0</ele><time>2026-04-20T14:27:54Z</time></trkpt><trkpt lat="44.43589808903537" lon="10.879861058050038"><ele>562.0</ele><time>2026-04-20T14:27:55Z</time></trkpt><trkpt lat="44.43590579944587" lon="10.880053171162281"><ele>562.0</ele><time>2026-04-20T14:27:56Z</time></trkpt><trkpt lat="44.435904115329706" lon="10.880261852063496"><ele>562.0</ele><time>2026-04-20T14:27:57Z</time></trkpt><trkpt lat="44.435893941223824" lon="10.88049299777704"><ele>562.0</ele><time>2026-04-20T14:27:58Z</time></trkpt><trkpt lat="44.43588497164443" lon="10.880744487779241"><ele>562.0</ele><time>2026-04-20T14:27:59Z</time></trkpt><trkpt lat="44.435886473207546" lon="10.881013003879902"><ele>562.0</ele><time>2026-04-20T14:28:00Z</time></trkpt><trkpt lat="44.43590270883485" lon="10.881274805053865"><ele>562.0</ele><time>2026-04-20T14:28:01Z</time></trkpt><trkpt lat="44.43594519820443" lon="10.881536704765074"><ele>562.3333333333334</ele><time>2026-04-20T14:28:02Z</time></trkpt><trkpt lat="44.43600642361831" lon="10.881785997506608"><ele>562.6666666666666</ele><time>2026-04-20T14:28:03Z</time></trkpt><trkpt lat="44.43606844895487" lon="10.881999071846005"><ele>563.0</ele><time>2026-04-20T14:28:04Z</time></trkpt><trkpt lat="44.43611540829013" lon="10.88218913365981"><ele>563.0</ele><time>2026-04-20T14:28:05Z</time></trkpt><trkpt lat="44.43610406169704" lon="10.882385192993883"><ele>563.0</ele><time>2026-04-20T14:28:06Z</time></trkpt><trkpt lat="44.436053875785774" lon="10.88257572375023"><ele>563.0</ele><time>2026-04-20T14:28:07Z</time></trkpt><trkpt lat="44.43598342232708" lon="10.882799030731604"><ele>562.0</ele><time>2026-04-20T14:28:08Z</time></trkpt><trkpt lat="44.435886622680854" lon="10.883003505625815"><ele>561.0</ele><time>2026-04-20T14:28:09Z</time></trkpt><trkpt lat="44.435823523968544" lon="10.883225096213502"><ele>560.0</ele><time>2026-04-20T14:28:10Z</time></trkpt><trkpt lat="44.43580402823014" lon="10.883460971202048"><ele>559.6666666666666</ele><time>2026-04-20T14:28:11Z</time></trkpt><trkpt lat="44.43583226336792" lon="10.88370284839103"><ele>559.3333333333334</ele><time>2026-04-20T14:28:12Z</time></trkpt><trkpt lat="44.43589326900481" lon="10.88392679611376"><ele>559.0</ele><time>2026-04-20T14:28:13Z</time></trkpt><trkpt lat="44.4359344718565" lon="10.884135314122195"><ele>557.0</ele><time>2026-04-20T14:28:14Z</time></trkpt><trkpt lat="44.43592184133188" lon="10.884372165605615"><ele>555.0</ele><time>2026-04-20T14:28:15Z</time></trkpt><trkpt lat="44.43586764460199" lon="10.884623752997834"><ele>553.0</ele><time>2026-04-20T14:28:16Z</time></trkpt><trkpt lat="44.43580578518005" lon="10.884873700550424"><ele>550.3333333333334</ele><time>2026-04-20T14:28:17Z</time></trkpt><trkpt lat="44.435729298560155" lon="10.885115278779919"><ele>547.6666666666666</ele><time>2026-04-20T14:28:18Z</time></trkpt><trkpt lat="44.435625691250074" lon="10.885335564216442"><ele>545.0</ele><time>2026-04-20T14:28:19Z</time></trkpt><trkpt lat="44.435498541259115" lon="10.88553667080492"><ele>548.0</ele><time>2026-04-20T14:28:20Z</time></trkpt><trkpt lat="44.435391695747164" lon="10.885760266969118"><ele>551.0</ele><time>2026-04-20T14:28:21Z</time></trkpt><trkpt lat="44.4353254843175" lon="10.886027255841364"><ele>554.0</ele><time>2026-04-20T14:28:22Z</time></trkpt><trkpt lat="44.435281299919275" lon="10.88630694037371"><ele>554.0</ele><time>2026-04-20T14:28:23Z</time></trkpt><trkpt lat="44.43524388154049" lon="10.886579425610483"><ele>554.0</ele><time>2026-04-20T14:28:24Z</time></trkpt><trkpt lat="44.4352217451793" lon="10.886827537499482"><ele>554.0</ele><time>2026-04-20T14:28:25Z</time></trkpt><trkpt lat="44.43523190661196" lon="10.8870836762291"><ele>553.6666666666666</ele><time>2026-04-20T14:28:26Z</time></trkpt><trkpt lat="44.435278821042964" lon="10.88734545750823"><ele>553.3333333333334</ele><time>2026-04-20T14:28:27Z</time></trkpt><trkpt lat="44.43534371479939" lon="10.88760387165494"><ele>553.0</ele><time>2026-04-20T14:28:28Z</time></trkpt><trkpt lat="44.4354110424237" lon="10.887836249769473"><ele>550.3333333333334</ele><time>2026-04-20T14:28:29Z</time></trkpt><trkpt lat="44.43551628741353" lon="10.88807688694723"><ele>547.6666666666666</ele><time>2026-04-20T14:28:30Z</time></trkpt><trkpt lat="44.4355860409099" lon="10.888338481596746"><ele>545.0</ele><time>2026-04-20T14:28:31Z</time></trkpt><trkpt lat="44.43560157796287" lon="10.888626427117659"><ele>544.0</ele><time>2026-04-20T14:28:32Z</time></trkpt><trkpt lat="44.435645258500166" lon="10.888899809693365"><ele>543.0</ele><time>2026-04-20T14:28:33Z</time></trkpt><trkpt lat="44.43566356539518" lon="10.889145492153943"><ele>542.0</ele><time>2026-04-20T14:28:34Z</time></trkpt><trkpt lat="44.43562905354041" lon="10.889360221632277"><ele>541.3333333333333</ele><time>2026-04-20T14:28:35Z</time></trkpt><trkpt lat="44.43555497893802" lon="10.889563633361407"><ele>540.6666666666666</ele><time>2026-04-20T14:28:36Z</time></trkpt><trkpt lat="44.435495949181785" lon="10.889811659564167"><ele>540.0</ele><time>2026-04-20T14:28:37Z</time></trkpt><trkpt lat="44.435447788145474" lon="10.890060207012422"><ele>540.3333333333334</ele><time>2026-04-20T14:28:38Z</time></trkpt><trkpt lat="44.43545184234132" lon="10.890327113477875"><ele>540.6666666666667</ele><time>2026-04-20T14:28:39Z</time></trkpt><trkpt lat="44.43549890476652" lon="10.89059135992585"><ele>541.0</ele><time>2026-04-20T14:28:40Z</time></trkpt><trkpt lat="44.43558843049933" lon="10.890829163896345"><ele>540.6666666666667</ele><time>2026-04-20T14:28:41Z</time></trkpt><trkpt lat="44.435703374357665" lon="10.89103489898872"><ele>540.3333333333334</ele><time>2026-04-20T14:28:42Z</time></trkpt><trkpt lat="44.43580151659317" lon="10.891197790659113"><ele>540.0</ele><time>2026-04-20T14:28:43Z</time></trkpt><trkpt lat="44.43584623084446" lon="10.89135503451342"><ele>540.0</ele><time>2026-04-20T14:28:44Z</time></trkpt><trkpt lat="44.435814663694565" lon="10.8915155212059"><ele>540.0</ele><time>2026-04-20T14:28:45Z</time></trkpt><trkpt lat="44.435711968466435" lon="10.891624428546624"><ele>540.0</ele><time>2026-04-20T14:28:46Z</time></trkpt><trkpt lat="44.435652781424864" lon="10.891792818191062"><ele>540.0</ele><time>2026-04-20T14:28:47Z</time></trkpt><trkpt lat="44.43560108828775" lon="10.891945704046146"><ele>539.75</ele><time>2026-04-20T14:28:48Z</time></trkpt><trkpt lat="44.435619470901436" lon="10.892113368283788"><ele>539.5</ele><time>2026-04-20T14:28:49Z</time></trkpt><trkpt lat="44.43572081187798" lon="10.892250240910784"><ele>539.25</ele><time>2026-04-20T14:28:50Z</time></trkpt><trkpt lat="44.43582210925434" lon="10.892388539073224"><ele>539.0</ele><time>2026-04-20T14:28:51Z</time></trkpt><trkpt lat="44.43592234770487" lon="10.89253192590087"><ele>540.0</ele><time>2026-04-20T14:28:52Z</time></trkpt><trkpt lat="44.43591212503973" lon="10.89275424995571"><ele>541.0</ele><time>2026-04-20T14:28:53Z</time></trkpt><trkpt lat="44.43591397724615" lon="10.893012977977383"><ele>542.0</ele><time>2026-04-20T14:28:54Z</time></trkpt><trkpt lat="44.435974638452244" lon="10.893283761476516"><ele>540.3333333333333</ele><time>2026-04-20T14:28:55Z</time></trkpt><trkpt lat="44.43607795457342" lon="10.893520778684364"><ele>538.6666666666666</ele><time>2026-04-20T14:28:56Z</time></trkpt><trkpt lat="44.43616888953828" lon="10.893728940179725"><ele>537.0</ele><time>2026-04-20T14:28:57Z</time></trkpt><trkpt lat="44.436186748030536" lon="10.893997969291535"><ele>535.0</ele><time>2026-04-20T14:28:58Z</time></trkpt><trkpt lat="44.43620383462681" lon="10.894289029171441"><ele>533.0</ele><time>2026-04-20T14:28:59Z</time></trkpt><trkpt lat="44.43621175182278" lon="10.89457678994673"><ele>531.0</ele><time>2026-04-20T14:29:00Z</time></trkpt><trkpt lat="44.436248932387564" lon="10.894879237884608"><ele>529.5</ele><time>2026-04-20T14:29:01Z</time></trkpt><trkpt lat="44.43633284484631" lon="10.895187280432955"><ele>528.0</ele><time>2026-04-20T14:29:02Z</time></trkpt><trkpt lat="44.43644194858267" lon="10.895486267887636"><ele>528.0</ele><time>2026-04-20T14:29:03Z</time></trkpt><trkpt lat="44.436540301476846" lon="10.895763789582057"><ele>528.0</ele><time>2026-04-20T14:29:04Z</time></trkpt><trkpt lat="44.43662019077402" lon="10.896025168261787"><ele>528.0</ele><time>2026-04-20T14:29:05Z</time></trkpt><trkpt lat="44.436700025460965" lon="10.896278415062495"><ele>526.6666666666666</ele><time>2026-04-20T14:29:06Z</time></trkpt><trkpt lat="44.436797486089525" lon="10.896498418106738"><ele>525.3333333333333</ele><time>2026-04-20T14:29:07Z</time></trkpt><trkpt lat="44.436929727015105" lon="10.896692918864227"><ele>524.0</ele><time>2026-04-20T14:29:08Z</time></trkpt><trkpt lat="44.43709182199839" lon="10.896880219891043"><ele>524.6666666666666</ele><time>2026-04-20T14:29:09Z</time></trkpt><trkpt lat="44.43726903888537" lon="10.89706167320018"><ele>525.3333333333334</ele><time>2026-04-20T14:29:10Z</time></trkpt><trkpt lat="44.437440270974825" lon="10.897263433230359"><ele>526.0</ele><time>2026-04-20T14:29:11Z</time></trkpt><trkpt lat="44.43761773427318" lon="10.89746058929384"><ele>522.5</ele><time>2026-04-20T14:29:12Z</time></trkpt><trkpt lat="44.43781705585632" lon="10.897636940602407"><ele>519.0</ele><time>2026-04-20T14:29:13.001Z</time></trkpt><trkpt lat="44.438027508080005" lon="10.897781318658355"><ele>519.0</ele><time>2026-04-20T14:29:14.001Z</time></trkpt><trkpt lat="44.43823253732956" lon="10.897902187460582"><ele>519.0</ele><time>2026-04-20T14:29:15.001Z</time></trkpt><trkpt lat="44.43842067384587" lon="10.898016529379964"><ele>519.0</ele><time>2026-04-20T14:29:16.001Z</time></trkpt><trkpt lat="44.438593290228965" lon="10.898143694764869"><ele>519.0</ele><time>2026-04-20T14:29:17.001Z</time></trkpt><trkpt lat="44.438748699352786" lon="10.898320535624713"><ele>519.0</ele><time>2026-04-20T14:29:18.001Z</time></trkpt><trkpt lat="44.438904100308484" lon="10.898505160863033"><ele>519.0</ele><time>2026-04-20T14:29:19.001Z</time></trkpt><trkpt lat="44.43906591317916" lon="10.898678448814929"><ele>517.3333333333334</ele><time>2026-04-20T14:29:20.001Z</time></trkpt><trkpt lat="44.439218854635754" lon="10.898829968138365"><ele>515.6666666666667</ele><time>2026-04-20T14:29:21.001Z</time></trkpt><trkpt lat="44.439365992172114" lon="10.898999071774531"><ele>514.0</ele><time>2026-04-20T14:29:22.001Z</time></trkpt><trkpt lat="44.43948133475331" lon="10.899208905714396"><ele>511.0</ele><time>2026-04-20T14:29:23.001Z</time></trkpt><trkpt lat="44.43957023746792" lon="10.899466617086924"><ele>508.0</ele><time>2026-04-20T14:29:24.001Z</time></trkpt><trkpt lat="44.439618998029204" lon="10.89972945737569"><ele>505.0</ele><time>2026-04-20T14:29:25.001Z</time></trkpt><trkpt lat="44.43966707815958" lon="10.900000374462312"><ele>503.33333333333337</ele><time>2026-04-20T14:29:26.001Z</time></trkpt><trkpt lat="44.439671167135195" lon="10.9002899255691"><ele>501.66666666666663</ele><time>2026-04-20T14:29:27.001Z</time></trkpt><trkpt lat="44.43965230149642" lon="10.900573857270764"><ele>500.0</ele><time>2026-04-20T14:29:28.001Z</time></trkpt><trkpt lat="44.43960995678443" lon="10.9008458083623"><ele>500.0</ele><time>2026-04-20T14:29:29.001Z</time></trkpt><trkpt lat="44.43952769249362" lon="10.901086956506976"><ele>500.0</ele><time>2026-04-20T14:29:30.001Z</time></trkpt><trkpt lat="44.439447194835275" lon="10.901309465168117"><ele>500.0</ele><time>2026-04-20T14:29:31.001Z</time></trkpt><trkpt lat="44.43935882665114" lon="10.90146289608562"><ele>500.0</ele><time>2026-04-20T14:29:32.001Z</time></trkpt><trkpt lat="44.43933649354912" lon="10.901607692929499"><ele>500.0</ele><time>2026-04-20T14:29:33.001Z</time></trkpt><trkpt lat="44.439371162310756" lon="10.901750028332275"><ele>500.0</ele><time>2026-04-20T14:29:34.001Z</time></trkpt><trkpt lat="44.43944091153762" lon="10.901886198904162"><ele>500.0</ele><time>2026-04-20T14:29:35.001Z</time></trkpt><trkpt lat="44.43952587055296" lon="10.902048672463893"><ele>498.0</ele><time>2026-04-20T14:29:36.001Z</time></trkpt><trkpt lat="44.439616830338394" lon="10.902222513426471"><ele>496.0</ele><time>2026-04-20T14:29:37.001Z</time></trkpt><trkpt lat="44.43967246006175" lon="10.902406881038305"><ele>494.0</ele><time>2026-04-20T14:29:38.001Z</time></trkpt><trkpt lat="44.43970054507644" lon="10.90259919251063"><ele>492.0</ele><time>2026-04-20T14:29:39Z</time></trkpt><trkpt lat="44.439695477934215" lon="10.902808047866833"><ele>491.66666666666663</ele><time>2026-04-20T14:29:40Z</time></trkpt><trkpt lat="44.43964241073257" lon="10.903001858673498"><ele>491.3333333333333</ele><time>2026-04-20T14:29:41Z</time></trkpt><trkpt lat="44.43957595426851" lon="10.9031935920464"><ele>491.0</ele><time>2026-04-20T14:29:42Z</time></trkpt><trkpt lat="44.43952334441241" lon="10.903392991593542"><ele>493.75</ele><time>2026-04-20T14:29:43Z</time></trkpt><trkpt lat="44.43942115485698" lon="10.903531361464728"><ele>496.5</ele><time>2026-04-20T14:29:44Z</time></trkpt><trkpt lat="44.43929156059293" lon="10.903614601246169"><ele>499.25</ele><time>2026-04-20T14:29:45Z</time></trkpt><trkpt lat="44.43916629031504" lon="10.903696369463903"><ele>502.0</ele><time>2026-04-20T14:29:46Z</time></trkpt><trkpt lat="44.439079290766756" lon="10.90382661868775"><ele>502.0</ele><time>2026-04-20T14:29:47Z</time></trkpt><trkpt lat="44.43901814703664" lon="10.904005636087634"><ele>502.0</ele><time>2026-04-20T14:29:48Z</time></trkpt><trkpt lat="44.438963188489375" lon="10.904218450244956"><ele>502.0</ele><time>2026-04-20T14:29:49Z</time></trkpt><trkpt lat="44.43887929688965" lon="10.904409906503714"><ele>496.5</ele><time>2026-04-20T14:29:50Z</time></trkpt><trkpt lat="44.43878082548272" lon="10.90457628382284"><ele>491.0</ele><time>2026-04-20T14:29:51Z</time></trkpt><trkpt lat="44.438699857093354" lon="10.90473332916123"><ele>485.5</ele><time>2026-04-20T14:29:52Z</time></trkpt><trkpt lat="44.438659981162374" lon="10.904886327072122"><ele>480.0</ele><time>2026-04-20T14:29:53Z</time></trkpt><trkpt lat="44.43864524050183" lon="10.90505590854787"><ele>478.75</ele><time>2026-04-20T14:29:54Z</time></trkpt><trkpt lat="44.4386662218927" lon="10.905239764480356"><ele>477.5</ele><time>2026-04-20T14:29:55Z</time></trkpt><trkpt lat="44.43872695020713" lon="10.905420421808776"><ele>476.25</ele><time>2026-04-20T14:29:56Z</time></trkpt><trkpt lat="44.438813816852836" lon="10.905611581438"><ele>475.0</ele><time>2026-04-20T14:29:57Z</time></trkpt><trkpt lat="44.43886986782929" lon="10.905824700396158"><ele>477.33333333333337</ele><time>2026-04-20T14:29:58Z</time></trkpt><trkpt lat="44.43888321738159" lon="10.906070698104699"><ele>479.66666666666663</ele><time>2026-04-20T14:29:59Z</time></trkpt><trkpt lat="44.43886486159683" lon="10.906309398223716"><ele>482.0</ele><time>2026-04-20T14:30:00Z</time></trkpt><trkpt lat="44.43884484289445" lon="10.90652802274408"><ele>482.0</ele><time>2026-04-20T14:30:01Z</time></trkpt><trkpt lat="44.43884582705343" lon="10.90673570742268"><ele>482.00000000000006</ele><time>2026-04-20T14:30:02Z</time></trkpt><trkpt lat="44.43886094581738" lon="10.906906877742246"><ele>482.00000000000006</ele><time>2026-04-20T14:30:03Z</time></trkpt><trkpt lat="44.43888976632141" lon="10.9070216470499"><ele>482.0</ele><time>2026-04-20T14:30:04Z</time></trkpt><trkpt lat="44.43895650320752" lon="10.907105437774952"><ele>482.0</ele><time>2026-04-20T14:30:05Z</time></trkpt><trkpt lat="44.439059199261926" lon="10.907113024071611"><ele>482.0</ele><time>2026-04-20T14:30:06Z</time></trkpt><trkpt lat="44.43916982476703" lon="10.90705054764337"><ele>482.0</ele><time>2026-04-20T14:30:07Z</time></trkpt><trkpt lat="44.439273001018755" lon="10.90690673418141"><ele>482.0</ele><time>2026-04-20T14:30:08Z</time></trkpt><trkpt lat="44.43935386800948" lon="10.906710343905367"><ele>482.0</ele><time>2026-04-20T14:30:09Z</time></trkpt><trkpt lat="44.43940336060032" lon="10.906510119971164"><ele>482.0</ele><time>2026-04-20T14:30:10Z</time></trkpt><trkpt lat="44.43947250592244" lon="10.906355935687653"><ele>482.0</ele><time>2026-04-20T14:30:11Z</time></trkpt><trkpt lat="44.439558758656396" lon="10.906253741280235"><ele>482.0</ele><time>2026-04-20T14:30:12Z</time></trkpt><trkpt lat="44.43965224418177" lon="10.906211522564583"><ele>482.0</ele><time>2026-04-20T14:30:13Z</time></trkpt><trkpt lat="44.43976361803137" lon="10.906247225719381"><ele>478.66666666666663</ele><time>2026-04-20T14:30:14Z</time></trkpt><trkpt lat="44.439877143692684" lon="10.90633486386481"><ele>475.33333333333337</ele><time>2026-04-20T14:30:15Z</time></trkpt><trkpt lat="44.44002458270231" lon="10.90643242409755"><ele>472.0</ele><time>2026-04-20T14:30:16Z</time></trkpt><trkpt lat="44.44019085639595" lon="10.90653292965373"><ele>472.0</ele><time>2026-04-20T14:30:17Z</time></trkpt><trkpt lat="44.440402084214035" lon="10.906594545677473"><ele>472.0</ele><time>2026-04-20T14:30:18Z</time></trkpt><trkpt lat="44.440620843936166" lon="10.906644125626393"><ele>472.0</ele><time>2026-04-20T14:30:19Z</time></trkpt><trkpt lat="44.440801678825174" lon="10.906704110549624"><ele>466.0</ele><time>2026-04-20T14:30:20Z</time></trkpt><trkpt lat="44.440973952562125" lon="10.906752281781479"><ele>460.0</ele><time>2026-04-20T14:30:21Z</time></trkpt><trkpt lat="44.44113985358657" lon="10.906815266372115"><ele>454.0</ele><time>2026-04-20T14:30:22Z</time></trkpt><trkpt lat="44.44126032063471" lon="10.906907348019907"><ele>456.5</ele><time>2026-04-20T14:30:23Z</time></trkpt><trkpt lat="44.44137314291664" lon="10.907012416498626"><ele>459.0</ele><time>2026-04-20T14:30:24Z</time></trkpt><trkpt lat="44.44149135065964" lon="10.907082107084923"><ele>461.5</ele><time>2026-04-20T14:30:25Z</time></trkpt><trkpt lat="44.44159715457766" lon="10.907125010000001"><ele>464.0</ele><time>2026-04-20T14:30:26Z</time></trkpt><trkpt lat="44.441680632337814" lon="10.907195274833052"><ele>464.0</ele><time>2026-04-20T14:30:27Z</time></trkpt><trkpt lat="44.44174269892517" lon="10.907310376230154"><ele>464.0</ele><time>2026-04-20T14:30:28Z</time></trkpt><trkpt lat="44.44176540227842" lon="10.907467230588757"><ele>464.0</ele><time>2026-04-20T14:30:29Z</time></trkpt><trkpt lat="44.44176267145674" lon="10.907629661237934"><ele>464.0</ele><time>2026-04-20T14:30:30Z</time></trkpt><trkpt lat="44.44175261524907" lon="10.907779351595282"><ele>464.0</ele><time>2026-04-20T14:30:31Z</time></trkpt><trkpt lat="44.44178283223888" lon="10.907910494148851"><ele>462.75</ele><time>2026-04-20T14:30:32Z</time></trkpt><trkpt lat="44.4418445237347" lon="10.908042576222178"><ele>461.5</ele><time>2026-04-20T14:30:33Z</time></trkpt><trkpt lat="44.44194195248281" lon="10.90813037926505"><ele>460.25</ele><time>2026-04-20T14:30:34Z</time></trkpt><trkpt lat="44.442048251023955" lon="10.908201396212718"><ele>459.0</ele><time>2026-04-20T14:30:35Z</time></trkpt><trkpt lat="44.44215353870415" lon="10.908278133573063"><ele>459.0</ele><time>2026-04-20T14:30:36Z</time></trkpt><trkpt lat="44.44224439814428" lon="10.90839665786764"><ele>459.0</ele><time>2026-04-20T14:30:37Z</time></trkpt><trkpt lat="44.442305700642926" lon="10.908555283847146"><ele>459.0</ele><time>2026-04-20T14:30:38Z</time></trkpt><trkpt lat="44.442348897886625" lon="10.908736083616192"><ele>459.0</ele><time>2026-04-20T14:30:39Z</time></trkpt><trkpt lat="44.442393595491005" lon="10.908918363422318"><ele>457.25</ele><time>2026-04-20T14:30:40Z</time></trkpt><trkpt lat="44.44246282863826" lon="10.909095370879836"><ele>455.5</ele><time>2026-04-20T14:30:41Z</time></trkpt><trkpt lat="44.4425482301532" lon="10.909254216346877"><ele>453.75</ele><time>2026-04-20T14:30:42Z</time></trkpt><trkpt lat="44.44263631631505" lon="10.90939763670627"><ele>452.0</ele><time>2026-04-20T14:30:43Z</time></trkpt><trkpt lat="44.44270650184064" lon="10.909550041978282"><ele>450.25</ele><time>2026-04-20T14:30:44Z</time></trkpt><trkpt lat="44.44274165521839" lon="10.909719359944662"><ele>448.5</ele><time>2026-04-20T14:30:45Z</time></trkpt><trkpt lat="44.442745491411884" lon="10.909900648632135"><ele>446.75</ele><time>2026-04-20T14:30:46Z</time></trkpt><trkpt lat="44.44270793396203" lon="10.91008124152032"><ele>445.0</ele><time>2026-04-20T14:30:47Z</time></trkpt><trkpt lat="44.44262787305116" lon="10.910256947341589"><ele>444.33333333333337</ele><time>2026-04-20T14:30:48Z</time></trkpt><trkpt lat="44.44255304900334" lon="10.91044298481363"><ele>443.66666666666663</ele><time>2026-04-20T14:30:49Z</time></trkpt><trkpt lat="44.44248429653766" lon="10.910644720383901"><ele>443.0</ele><time>2026-04-20T14:30:50Z</time></trkpt><trkpt lat="44.442397127377504" lon="10.91084098683565"><ele>443.3333333333333</ele><time>2026-04-20T14:30:51Z</time></trkpt><trkpt lat="44.44230171389734" lon="10.911028859433955"><ele>443.66666666666663</ele><time>2026-04-20T14:30:52Z</time></trkpt><trkpt lat="44.442207712520336" lon="10.91120047124308"><ele>444.0</ele><time>2026-04-20T14:30:53Z</time></trkpt><trkpt lat="44.44211910245564" lon="10.91135966736322"><ele>439.0</ele><time>2026-04-20T14:30:54Z</time></trkpt><trkpt lat="44.442033183725954" lon="10.91153295861939"><ele>434.0</ele><time>2026-04-20T14:30:55Z</time></trkpt><trkpt lat="44.44197115859011" lon="10.91172405236074"><ele>429.0</ele><time>2026-04-20T14:30:56Z</time></trkpt><trkpt lat="44.441931591186446" lon="10.911943224426963"><ele>429.0</ele><time>2026-04-20T14:30:57Z</time></trkpt><trkpt lat="44.44190442980614" lon="10.912157205489715"><ele>429.0</ele><time>2026-04-20T14:30:58Z</time></trkpt><trkpt lat="44.44188535140302" lon="10.912362859991529"><ele>429.0</ele><time>2026-04-20T14:30:59Z</time></trkpt><trkpt lat="44.44185778448925" lon="10.91256098075962"><ele>429.0</ele><time>2026-04-20T14:31:00Z</time></trkpt><trkpt lat="44.44181954449219" lon="10.912743835616544"><ele>429.5</ele><time>2026-04-20T14:31:01Z</time></trkpt><trkpt lat="44.441760645057435" lon="10.912907616753895"><ele>430.0</ele><time>2026-04-20T14:31:02Z</time></trkpt><trkpt lat="44.441691618366576" lon="10.913057506308165"><ele>430.5</ele><time>2026-04-20T14:31:03Z</time></trkpt><trkpt lat="44.4416114656685" lon="10.913197980190638"><ele>431.0</ele><time>2026-04-20T14:31:04Z</time></trkpt><trkpt lat="44.441518149465814" lon="10.913329392213216"><ele>430.25</ele><time>2026-04-20T14:31:05Z</time></trkpt><trkpt lat="44.44142231409557" lon="10.913449379834061"><ele>429.5</ele><time>2026-04-20T14:31:06Z</time></trkpt><trkpt lat="44.44133374531168" lon="10.913560318458902"><ele>428.75</ele><time>2026-04-20T14:31:07Z</time></trkpt><trkpt lat="44.44125407397893" lon="10.913668561631674"><ele>428.0</ele><time>2026-04-20T14:31:08Z</time></trkpt><trkpt lat="44.4411928871041" lon="10.913769988787962"><ele>426.59999999999997</ele><time>2026-04-20T14:31:09Z</time></trkpt><trkpt lat="44.441153170757566" lon="10.913860616879568"><ele>425.19999999999993</ele><time>2026-04-20T14:31:10Z</time></trkpt><trkpt lat="44.44113351191872" lon="10.913966587091142"><ele>423.8</ele><time>2026-04-20T14:31:11Z</time></trkpt><trkpt lat="44.44115653439585" lon="10.914079708120957"><ele>422.4</ele><time>2026-04-20T14:31:12Z</time></trkpt><trkpt lat="44.44122398121359" lon="10.914193050455253"><ele>421.0</ele><time>2026-04-20T14:31:13Z</time></trkpt><trkpt lat="44.441332373706196" lon="10.91429420227537"><ele>420.75</ele><time>2026-04-20T14:31:14Z</time></trkpt><trkpt lat="44.44144630461477" lon="10.914374527410015"><ele>420.5</ele><time>2026-04-20T14:31:15Z</time></trkpt><trkpt lat="44.44155432421882" lon="10.914461980819054"><ele>420.25</ele><time>2026-04-20T14:31:16Z</time></trkpt><trkpt lat="44.44165293881552" lon="10.914567560633758"><ele>420.0</ele><time>2026-04-20T14:31:17Z</time></trkpt><trkpt lat="44.4417394143251" lon="10.914673287198667"><ele>420.0</ele><time>2026-04-20T14:31:18Z</time></trkpt><trkpt lat="44.441799061394526" lon="10.91480803390805"><ele>420.0</ele><time>2026-04-20T14:31:19.001Z</time></trkpt><trkpt lat="44.44182250121419" lon="10.914966778389998"><ele>420.0</ele><time>2026-04-20T14:31:20.001Z</time></trkpt><trkpt lat="44.4418288818397" lon="10.915147350114852"><ele>420.0</ele><time>2026-04-20T14:31:21.001Z</time></trkpt><trkpt lat="44.44183324573666" lon="10.915334630632989"><ele>418.5</ele><time>2026-04-20T14:31:22.001Z</time></trkpt><trkpt lat="44.44185131314475" lon="10.915529494044508"><ele>417.0</ele><time>2026-04-20T14:31:23.001Z</time></trkpt><trkpt lat="44.44184595924537" lon="10.915726748555393"><ele>415.5</ele><time>2026-04-20T14:31:24.001Z</time></trkpt><trkpt lat="44.441826942741734" lon="10.915929035953276"><ele>414.0</ele><time>2026-04-20T14:31:25.001Z</time></trkpt><trkpt lat="44.44179980496468" lon="10.916123740184652"><ele>414.0</ele><time>2026-04-20T14:31:26.001Z</time></trkpt><trkpt lat="44.44177401139304" lon="10.916338254709055"><ele>414.0</ele><time>2026-04-20T14:31:27.001Z</time></trkpt><trkpt lat="44.441756685060504" lon="10.916561820654158"><ele>414.0</ele><time>2026-04-20T14:31:28.001Z</time></trkpt><trkpt lat="44.44174972763556" lon="10.916806932339915"><ele>412.0</ele><time>2026-04-20T14:31:29.001Z</time></trkpt><trkpt lat="44.441763607343546" lon="10.917125033021023"><ele>410.0</ele><time>2026-04-20T14:31:30.001Z</time></trkpt><trkpt lat="44.441761262462585" lon="10.917456362491096"><ele>409.0</ele><time>2026-04-20T14:31:31.001Z</time></trkpt><trkpt lat="44.441795045926355" lon="10.91782257910603"><ele>408.0</ele><time>2026-04-20T14:31:32.001Z</time></trkpt><trkpt lat="44.44180331617491" lon="10.918185111983789"><ele>407.5</ele><time>2026-04-20T14:31:33.001Z</time></trkpt><trkpt lat="44.44181232939754" lon="10.918519108050766"><ele>407.0</ele><time>2026-04-20T14:31:34.001Z</time></trkpt><trkpt lat="44.44182849153567" lon="10.91881488423024"><ele>407.0</ele><time>2026-04-20T14:31:35.001Z</time></trkpt><trkpt lat="44.44184343228178" lon="10.919101123699809"><ele>407.0</ele><time>2026-04-20T14:31:36.001Z</time></trkpt><trkpt lat="44.441851858404696" lon="10.91937383126853"><ele>407.0</ele><time>2026-04-20T14:31:37.001Z</time></trkpt><trkpt lat="44.44185080336462" lon="10.919634268393626"><ele>406.75</ele><time>2026-04-20T14:31:38.001Z</time></trkpt><trkpt lat="44.44184237197316" lon="10.919881545780626"><ele>406.5</ele><time>2026-04-20T14:31:39.001Z</time></trkpt><trkpt lat="44.441835356119476" lon="10.920078664146235"><ele>406.25</ele><time>2026-04-20T14:31:40.001Z</time></trkpt><trkpt lat="44.441854822645524" lon="10.920251486817502"><ele>406.0</ele><time>2026-04-20T14:31:41.001Z</time></trkpt><trkpt lat="44.441914540369716" lon="10.920408592687016"><ele>404.75</ele><time>2026-04-20T14:31:42.001Z</time></trkpt><trkpt lat="44.442016688326554" lon="10.920537427829887"><ele>403.5</ele><time>2026-04-20T14:31:43.001Z</time></trkpt><trkpt lat="44.44214937567802" lon="10.92061957071451"><ele>402.25</ele><time>2026-04-20T14:31:44.001Z</time></trkpt><trkpt lat="44.442304658200044" lon="10.92064527237759"><ele>401.0</ele><time>2026-04-20T14:31:45.001Z</time></trkpt><trkpt lat="44.44246770706157" lon="10.920642468030794"><ele>400.3333333333333</ele><time>2026-04-20T14:31:46.001Z</time></trkpt><trkpt lat="44.44263045353559" lon="10.920663172986158"><ele>399.66666666666663</ele><time>2026-04-20T14:31:47Z</time></trkpt><trkpt lat="44.442788119228695" lon="10.920723911669766"><ele>399.0</ele><time>2026-04-20T14:31:48Z</time></trkpt><trkpt lat="44.44293242292606" lon="10.920830987550415"><ele>398.0</ele><time>2026-04-20T14:31:49Z</time></trkpt><trkpt lat="44.44303717395189" lon="10.920996401550433"><ele>397.0</ele><time>2026-04-20T14:31:50Z</time></trkpt><trkpt lat="44.443110795938615" lon="10.921193127413382"><ele>396.0</ele><time>2026-04-20T14:31:51Z</time></trkpt><trkpt lat="44.443192608105626" lon="10.921407877126086"><ele>396.0</ele><time>2026-04-20T14:31:52Z</time></trkpt><trkpt lat="44.44327732011667" lon="10.921643214310173"><ele>396.0</ele><time>2026-04-20T14:31:53Z</time></trkpt><trkpt lat="44.44338930428956" lon="10.921858622124866"><ele>396.0</ele><time>2026-04-20T14:31:54Z</time></trkpt><trkpt lat="44.44353968177154" lon="10.922066648678543"><ele>395.33333333333337</ele><time>2026-04-20T14:31:55Z</time></trkpt><trkpt lat="44.44370742828881" lon="10.922261346617795"><ele>394.6666666666667</ele><time>2026-04-20T14:31:56Z</time></trkpt><trkpt lat="44.44387401589768" lon="10.922454409714627"><ele>394.0</ele><time>2026-04-20T14:31:57Z</time></trkpt><trkpt lat="44.4440403176052" lon="10.922658765538436"><ele>390.5</ele><time>2026-04-20T14:31:58Z</time></trkpt><trkpt lat="44.44420851339551" lon="10.922868557147254"><ele>387.0</ele><time>2026-04-20T14:31:59Z</time></trkpt><trkpt lat="44.44438548832538" lon="10.923082525249766"><ele>387.0</ele><time>2026-04-20T14:32:00Z</time></trkpt><trkpt lat="44.444565970749316" lon="10.923291185555026"><ele>387.0</ele><time>2026-04-20T14:32:01Z</time></trkpt><trkpt lat="44.44475074371047" lon="10.923499102326382"><ele>386.0</ele><time>2026-04-20T14:32:02Z</time></trkpt><trkpt lat="44.44492380356806" lon="10.923698376562022"><ele>385.0</ele><time>2026-04-20T14:32:03Z</time></trkpt><trkpt lat="44.44507508774281" lon="10.923902911592172"><ele>384.0</ele><time>2026-04-20T14:32:04Z</time></trkpt><trkpt lat="44.445203304212825" lon="10.924131461113378"><ele>384.0</ele><time>2026-04-20T14:32:05Z</time></trkpt><trkpt lat="44.44530683604016" lon="10.924363507201257"><ele>384.0</ele><time>2026-04-20T14:32:06Z</time></trkpt><trkpt lat="44.4453960473332" lon="10.924572993828397"><ele>384.0</ele><time>2026-04-20T14:32:07Z</time></trkpt><trkpt lat="44.44548904505543" lon="10.924764991949878"><ele>384.0</ele><time>2026-04-20T14:32:08Z</time></trkpt><trkpt lat="44.44558952944722" lon="10.924944532668995"><ele>384.0</ele><time>2026-04-20T14:32:09Z</time></trkpt><trkpt lat="44.44568933517606" lon="10.925109966422408"><ele>384.0</ele><time>2026-04-20T14:32:10Z</time></trkpt><trkpt lat="44.44578303855391" lon="10.925260088667212"><ele>381.75</ele><time>2026-04-20T14:32:11Z</time></trkpt><trkpt lat="44.445871555237815" lon="10.92539587763763"><ele>379.5</ele><time>2026-04-20T14:32:12Z</time></trkpt><trkpt lat="44.4459614964486" lon="10.925498594643756"><ele>377.25</ele><time>2026-04-20T14:32:13Z</time></trkpt><trkpt lat="44.4460664482216" lon="10.925579427497578"><ele>375.0</ele><time>2026-04-20T14:32:14Z</time></trkpt><trkpt lat="44.44619333928261" lon="10.925646554766166"><ele>375.5</ele><time>2026-04-20T14:32:15Z</time></trkpt><trkpt lat="44.446330067724084" lon="10.92568750170708"><ele>376.0</ele><time>2026-04-20T14:32:16Z</time></trkpt><trkpt lat="44.44645718362701" lon="10.925708815635298"><ele>376.5</ele><time>2026-04-20T14:32:17Z</time></trkpt><trkpt lat="44.44657825753873" lon="10.925744650303091"><ele>377.0</ele><time>2026-04-20T14:32:18Z</time></trkpt><trkpt lat="44.44669151292437" lon="10.925801447492711"><ele>377.0</ele><time>2026-04-20T14:32:19Z</time></trkpt><trkpt lat="44.446800203326674" lon="10.925872457636531"><ele>377.0</ele><time>2026-04-20T14:32:20Z</time></trkpt><trkpt lat="44.44690465529276" lon="10.92594609029998"><ele>377.0</ele><time>2026-04-20T14:32:21Z</time></trkpt><trkpt lat="44.44700899969276" lon="10.926015143092275"><ele>377.0</ele><time>2026-04-20T14:32:22Z</time></trkpt><trkpt lat="44.44711362801535" lon="10.926113465910763"><ele>375.25</ele><time>2026-04-20T14:32:23Z</time></trkpt><trkpt lat="44.44719205764197" lon="10.926193748291437"><ele>373.5</ele><time>2026-04-20T14:32:24Z</time></trkpt><trkpt lat="44.44727793019342" lon="10.926305162075385"><ele>371.75</ele><time>2026-04-20T14:32:25Z</time></trkpt><trkpt lat="44.44736193710648" lon="10.926440281189558"><ele>370.0</ele><time>2026-04-20T14:32:26Z</time></trkpt><trkpt lat="44.44743853436132" lon="10.926597333166873"><ele>368.3333333333333</ele><time>2026-04-20T14:32:27Z</time></trkpt><trkpt lat="44.44749814111417" lon="10.926781555604569"><ele>366.6666666666667</ele><time>2026-04-20T14:32:28Z</time></trkpt><trkpt lat="44.447546481510635" lon="10.926986304278035"><ele>365.0</ele><time>2026-04-20T14:32:29Z</time></trkpt><trkpt lat="44.44758931970514" lon="10.927198673015745"><ele>365.0</ele><time>2026-04-20T14:32:30Z</time></trkpt><trkpt lat="44.44763215176916" lon="10.927421371777672"><ele>365.0</ele><time>2026-04-20T14:32:31Z</time></trkpt><trkpt lat="44.44767556675031" lon="10.927632709433665"><ele>365.0</ele><time>2026-04-20T14:32:32Z</time></trkpt><trkpt lat="44.44772622390998" lon="10.927832938803402"><ele>363.5</ele><time>2026-04-20T14:32:33Z</time></trkpt><trkpt lat="44.44777580868317" lon="10.928024632401334"><ele>362.0</ele><time>2026-04-20T14:32:34Z</time></trkpt><trkpt lat="44.447824708692515" lon="10.928212547377411"><ele>360.5</ele><time>2026-04-20T14:32:35Z</time></trkpt><trkpt lat="44.44787149182414" lon="10.928388663096026"><ele>359.0</ele><time>2026-04-20T14:32:36Z</time></trkpt><trkpt lat="44.447923130136665" lon="10.928555620484621"><ele>358.75</ele><time>2026-04-20T14:32:37Z</time></trkpt><trkpt lat="44.4479989099266" lon="10.928704163521115"><ele>358.5</ele><time>2026-04-20T14:32:38Z</time></trkpt><trkpt lat="44.448102160690986" lon="10.928816528426625"><ele>358.25</ele><time>2026-04-20T14:32:39Z</time></trkpt><trkpt lat="44.44822924443675" lon="10.928906633133032"><ele>358.0</ele><time>2026-04-20T14:32:40Z</time></trkpt><trkpt lat="44.448367835253606" lon="10.928995668301717"><ele>358.0</ele><time>2026-04-20T14:32:41Z</time></trkpt><trkpt lat="44.448497386035925" lon="10.929088138008725"><ele>358.0</ele><time>2026-04-20T14:32:42Z</time></trkpt><trkpt lat="44.44862173019039" lon="10.929181611122406"><ele>358.0</ele><time>2026-04-20T14:32:43Z</time></trkpt><trkpt lat="44.448739959129874" lon="10.92927021626979"><ele>358.0</ele><time>2026-04-20T14:32:44Z</time></trkpt><trkpt lat="44.44885768287611" lon="10.929350290884392"><ele>355.75</ele><time>2026-04-20T14:32:45Z</time></trkpt><trkpt lat="44.44897290581843" lon="10.929428540088725"><ele>353.5</ele><time>2026-04-20T14:32:46Z</time></trkpt><trkpt lat="44.449082539125676" lon="10.929504286806955"><ele>351.25</ele><time>2026-04-20T14:32:47Z</time></trkpt><trkpt lat="44.449185579855666" lon="10.9295929954202"><ele>349.0</ele><time>2026-04-20T14:32:48Z</time></trkpt><trkpt lat="44.44928424231871" lon="10.929685180351747"><ele>349.0</ele><time>2026-04-20T14:32:49Z</time></trkpt><trkpt lat="44.44938444299515" lon="10.929764168220256"><ele>349.0</ele><time>2026-04-20T14:32:50Z</time></trkpt><trkpt lat="44.44949538453491" lon="10.929840162031908"><ele>349.0</ele><time>2026-04-20T14:32:51Z</time></trkpt><trkpt lat="44.44961262594033" lon="10.929923653728142"><ele>349.0</ele><time>2026-04-20T14:32:52Z</time></trkpt><trkpt lat="44.44974262425732" lon="10.930021143374029"><ele>347.66666666666663</ele><time>2026-04-20T14:32:53Z</time></trkpt><trkpt lat="44.44987061533097" lon="10.930130322450042"><ele>346.3333333333333</ele><time>2026-04-20T14:32:54Z</time></trkpt><trkpt lat="44.449999573354894" lon="10.930247362453875"><ele>345.0</ele><time>2026-04-20T14:32:55Z</time></trkpt><trkpt lat="44.45012699308284" lon="10.93037639519399"><ele>345.0</ele><time>2026-04-20T14:32:56Z</time></trkpt><trkpt lat="44.450248671245475" lon="10.930519312789553"><ele>345.0</ele><time>2026-04-20T14:32:57Z</time></trkpt><trkpt lat="44.45036254366326" lon="10.93069102981055"><ele>345.0</ele><time>2026-04-20T14:32:58Z</time></trkpt><trkpt lat="44.450451108737695" lon="10.93088965870138"><ele>344.0</ele><time>2026-04-20T14:32:59Z</time></trkpt><trkpt lat="44.45053215167984" lon="10.931099089875676"><ele>343.0</ele><time>2026-04-20T14:33:00Z</time></trkpt><trkpt lat="44.450609701234455" lon="10.93131347652143"><ele>342.0</ele><time>2026-04-20T14:33:01Z</time></trkpt><trkpt lat="44.45068170618332" lon="10.931527188427953"><ele>341.0</ele><time>2026-04-20T14:33:02Z</time></trkpt><trkpt lat="44.45074731885904" lon="10.931740350981418"><ele>340.0</ele><time>2026-04-20T14:33:03Z</time></trkpt><trkpt lat="44.45080450430981" lon="10.931963970422496"><ele>339.0</ele><time>2026-04-20T14:33:04Z</time></trkpt><trkpt lat="44.45085319031918" lon="10.932188122628757"><ele>339.0</ele><time>2026-04-20T14:33:05Z</time></trkpt><trkpt lat="44.45090772873578" lon="10.932419059770773"><ele>339.0</ele><time>2026-04-20T14:33:06Z</time></trkpt><trkpt lat="44.45097095650673" lon="10.932641973888073"><ele>339.0</ele><time>2026-04-20T14:33:07Z</time></trkpt><trkpt lat="44.4510504337966" lon="10.932870365065284"><ele>338.3333333333333</ele><time>2026-04-20T14:33:08Z</time></trkpt><trkpt lat="44.45113643447047" lon="10.933090336911125"><ele>337.66666666666663</ele><time>2026-04-20T14:33:09Z</time></trkpt><trkpt lat="44.45123485454331" lon="10.9333127413807"><ele>337.0</ele><time>2026-04-20T14:33:10Z</time></trkpt><trkpt lat="44.451332061773805" lon="10.933535170411266"><ele>337.0</ele><time>2026-04-20T14:33:11Z</time></trkpt><trkpt lat="44.45143105636802" lon="10.933761813957888"><ele>337.0</ele><time>2026-04-20T14:33:12Z</time></trkpt><trkpt lat="44.4515276311051" lon="10.933977798580768"><ele>337.0</ele><time>2026-04-20T14:33:13Z</time></trkpt><trkpt lat="44.45162393908847" lon="10.934183018373103"><ele>337.0</ele><time>2026-04-20T14:33:14Z</time></trkpt><trkpt lat="44.45171074100824" lon="10.93437600083617"><ele>337.0</ele><time>2026-04-20T14:33:15Z</time></trkpt><trkpt lat="44.45179925401695" lon="10.934572010732797"><ele>337.0</ele><time>2026-04-20T14:33:16Z</time></trkpt><trkpt lat="44.45190130444919" lon="10.934776231009456"><ele>337.0</ele><time>2026-04-20T14:33:17Z</time></trkpt><trkpt lat="44.45200188432005" lon="10.934978472821669"><ele>337.0</ele><time>2026-04-20T14:33:18Z</time></trkpt><trkpt lat="44.452095015354615" lon="10.935175708882198"><ele>337.0</ele><time>2026-04-20T14:33:19Z</time></trkpt><trkpt lat="44.45218892821148" lon="10.935369222772328"><ele>335.66666666666663</ele><time>2026-04-20T14:33:20Z</time></trkpt><trkpt lat="44.452269973771266" lon="10.935558619756833"><ele>334.3333333333333</ele><time>2026-04-20T14:33:21Z</time></trkpt><trkpt lat="44.45233974197529" lon="10.93574668873879"><ele>333.0</ele><time>2026-04-20T14:33:22Z</time></trkpt><trkpt lat="44.45239891369666" lon="10.935937587049812"><ele>332.3333333333333</ele><time>2026-04-20T14:33:23Z</time></trkpt><trkpt lat="44.452459256191055" lon="10.93614995037082"><ele>331.66666666666663</ele><time>2026-04-20T14:33:24Z</time></trkpt><trkpt lat="44.452518313599235" lon="10.936369301101141"><ele>331.0</ele><time>2026-04-20T14:33:25.001Z</time></trkpt><trkpt lat="44.452578478154656" lon="10.936596104400113"><ele>330.0</ele><time>2026-04-20T14:33:26.001Z</time></trkpt><trkpt lat="44.45263222502661" lon="10.93682249867278"><ele>329.0</ele><time>2026-04-20T14:33:27.001Z</time></trkpt><trkpt lat="44.452672318052706" lon="10.937040813788505"><ele>328.0</ele><time>2026-04-20T14:33:28.001Z</time></trkpt><trkpt lat="44.45270163119499" lon="10.93725414664242"><ele>328.0</ele><time>2026-04-20T14:33:29.001Z</time></trkpt><trkpt lat="44.452710871063495" lon="10.937468207050436"><ele>328.0</ele><time>2026-04-20T14:33:30.001Z</time></trkpt><trkpt lat="44.452702846820586" lon="10.937695145267986"><ele>328.0</ele><time>2026-04-20T14:33:31.001Z</time></trkpt><trkpt lat="44.45268543376187" lon="10.937928422662258"><ele>326.3333333333333</ele><time>2026-04-20T14:33:32.001Z</time></trkpt><trkpt lat="44.45267477139043" lon="10.938162785380952"><ele>324.6666666666667</ele><time>2026-04-20T14:33:33.001Z</time></trkpt><trkpt lat="44.45266886796261" lon="10.938405188464165"><ele>323.0</ele><time>2026-04-20T14:33:34.001Z</time></trkpt><trkpt lat="44.45266141328114" lon="10.9386361697888"><ele>321.33333333333337</ele><time>2026-04-20T14:33:35.001Z</time></trkpt><trkpt lat="44.452656632505914" lon="10.93886543962881"><ele>319.6666666666667</ele><time>2026-04-20T14:33:36.001Z</time></trkpt><trkpt lat="44.45265663347068" lon="10.939084440731872"><ele>318.0</ele><time>2026-04-20T14:33:37.001Z</time></trkpt><trkpt lat="44.45266920090694" lon="10.939295362778791"><ele>316.0</ele><time>2026-04-20T14:33:38.001Z</time></trkpt><trkpt lat="44.452692002889215" lon="10.939498576917876"><ele>314.0</ele><time>2026-04-20T14:33:39.001Z</time></trkpt><trkpt lat="44.452724556001186" lon="10.93970133564169"><ele>312.0</ele><time>2026-04-20T14:33:40.001Z</time></trkpt><trkpt lat="44.45276852534741" lon="10.93990015822126"><ele>310.0</ele><time>2026-04-20T14:33:41.001Z</time></trkpt><trkpt lat="44.45282538947335" lon="10.940088377437625"><ele>310.75</ele><time>2026-04-20T14:33:42.001Z</time></trkpt><trkpt lat="44.45289922295581" lon="10.940262790054582"><ele>311.5</ele><time>2026-04-20T14:33:43.001Z</time></trkpt><trkpt lat="44.452987996110174" lon="10.94041553391223"><ele>312.25</ele><time>2026-04-20T14:33:44.001Z</time></trkpt><trkpt lat="44.45310980550293" lon="10.940562832955186"><ele>313.0</ele><time>2026-04-20T14:33:45.001Z</time></trkpt><trkpt lat="44.453239684400614" lon="10.94073772065581"><ele>307.66666666666663</ele><time>2026-04-20T14:33:46.001Z</time></trkpt><trkpt lat="44.45338255244119" lon="10.940928337441866"><ele>302.3333333333333</ele><time>2026-04-20T14:33:47.001Z</time></trkpt><trkpt lat="44.45349564371166" lon="10.94112895126446"><ele>297.0</ele><time>2026-04-20T14:33:48.001Z</time></trkpt><trkpt lat="44.45358410244985" lon="10.941339556965287"><ele>297.0</ele><time>2026-04-20T14:33:49Z</time></trkpt><trkpt lat="44.453676882552955" lon="10.94154935097021"><ele>297.0</ele><time>2026-04-20T14:33:50Z</time></trkpt><trkpt lat="44.453747187800204" lon="10.941773023785046"><ele>297.0</ele><time>2026-04-20T14:33:51Z</time></trkpt><trkpt lat="44.453783938171476" lon="10.942007779349444"><ele>296.6666666666667</ele><time>2026-04-20T14:33:52Z</time></trkpt><trkpt lat="44.45381456436588" lon="10.94223276316657"><ele>296.33333333333337</ele><time>2026-04-20T14:33:53Z</time></trkpt><trkpt lat="44.453845803337096" lon="10.94244298632887"><ele>296.0</ele><time>2026-04-20T14:33:54Z</time></trkpt><trkpt lat="44.45387868072164" lon="10.942630239933587"><ele>296.0</ele><time>2026-04-20T14:33:55Z</time></trkpt><trkpt lat="44.45394869642742" lon="10.942798487118154"><ele>296.0</ele><time>2026-04-20T14:33:56Z</time></trkpt><trkpt lat="44.45405611600205" lon="10.942957335268428"><ele>296.0</ele><time>2026-04-20T14:33:57Z</time></trkpt><trkpt lat="44.454181553206524" lon="10.943111157373517"><ele>296.0</ele><time>2026-04-20T14:33:58Z</time></trkpt><trkpt lat="44.45430239205746" lon="10.943280309280064"><ele>296.0</ele><time>2026-04-20T14:33:59Z</time></trkpt><trkpt lat="44.45441107946605" lon="10.943475296352865"><ele>296.0</ele><time>2026-04-20T14:34:00Z</time></trkpt><trkpt lat="44.454527785077886" lon="10.943661872965844"><ele>295.33333333333337</ele><time>2026-04-20T14:34:01Z</time></trkpt><trkpt lat="44.45465239295656" lon="10.943823024654616"><ele>294.6666666666667</ele><time>2026-04-20T14:34:02Z</time></trkpt><trkpt lat="44.45477775168469" lon="10.943970310453293"><ele>294.0</ele><time>2026-04-20T14:34:03Z</time></trkpt><trkpt lat="44.4548879335562" lon="10.94412624230454"><ele>291.6666666666667</ele><time>2026-04-20T14:34:04Z</time></trkpt><trkpt lat="44.45498110691246" lon="10.944295808782124"><ele>289.33333333333337</ele><time>2026-04-20T14:34:05Z</time></trkpt><trkpt lat="44.45502988705805" lon="10.944493547097043"><ele>287.0</ele><time>2026-04-20T14:34:06Z</time></trkpt><trkpt lat="44.45504947856655" lon="10.944698472243113"><ele>287.0</ele><time>2026-04-20T14:34:07Z</time></trkpt><trkpt lat="44.45501068370333" lon="10.944915347207365"><ele>287.0</ele><time>2026-04-20T14:34:08Z</time></trkpt><trkpt lat="44.45499021262165" lon="10.945146940992004"><ele>287.0</ele><time>2026-04-20T14:34:09Z</time></trkpt><trkpt lat="44.4550236258348" lon="10.945389249352482"><ele>285.33333333333337</ele><time>2026-04-20T14:34:10Z</time></trkpt><trkpt lat="44.45508876320545" lon="10.945645451054409"><ele>283.6666666666667</ele><time>2026-04-20T14:34:11Z</time></trkpt><trkpt lat="44.45513462365198" lon="10.94590059679416"><ele>282.0</ele><time>2026-04-20T14:34:12Z</time></trkpt><trkpt lat="44.455145691492454" lon="10.946142869636784"><ele>279.3333333333333</ele><time>2026-04-20T14:34:13Z</time></trkpt><trkpt lat="44.45515110108865" lon="10.946369150312394"><ele>276.66666666666663</ele><time>2026-04-20T14:34:14Z</time></trkpt><trkpt lat="44.455194615997826" lon="10.946595558275984"><ele>274.0</ele><time>2026-04-20T14:34:15Z</time></trkpt><trkpt lat="44.4552691773286" lon="10.946829189477286"><ele>273.66666666666663</ele><time>2026-04-20T14:34:16Z</time></trkpt><trkpt lat="44.4553467104359" lon="10.947070346140949"><ele>273.3333333333333</ele><time>2026-04-20T14:34:17Z</time></trkpt><trkpt lat="44.45541006535421" lon="10.947325748336526"><ele>273.0</ele><time>2026-04-20T14:34:18Z</time></trkpt><trkpt lat="44.4554661250341" lon="10.947602706222252"><ele>273.0</ele><time>2026-04-20T14:34:19Z</time></trkpt><trkpt lat="44.45552767633644" lon="10.947891954958072"><ele>273.0</ele><time>2026-04-20T14:34:20Z</time></trkpt><trkpt lat="44.45559355317276" lon="10.948175759692768"><ele>273.0</ele><time>2026-04-20T14:34:21Z</time></trkpt><trkpt lat="44.45565166760346" lon="10.948447183142415"><ele>272.0</ele><time>2026-04-20T14:34:22Z</time></trkpt><trkpt lat="44.45570575528071" lon="10.948705436862708"><ele>271.0</ele><time>2026-04-20T14:34:23Z</time></trkpt><trkpt lat="44.455759910995255" lon="10.948959697874859"><ele>270.0</ele><time>2026-04-20T14:34:24Z</time></trkpt><trkpt lat="44.45581377844234" lon="10.949205601464252"><ele>268.0</ele><time>2026-04-20T14:34:25Z</time></trkpt><trkpt lat="44.4558539737391" lon="10.949441219455917"><ele>266.0</ele><time>2026-04-20T14:34:26Z</time></trkpt><trkpt lat="44.45586476539228" lon="10.949645495510246"><ele>264.0</ele><time>2026-04-20T14:34:27Z</time></trkpt><trkpt lat="44.455809066949435" lon="10.949811598006384"><ele>264.0</ele><time>2026-04-20T14:34:28Z</time></trkpt><trkpt lat="44.45577985484175" lon="10.949998550494158"><ele>264.0</ele><time>2026-04-20T14:34:29Z</time></trkpt><trkpt lat="44.45574080265529" lon="10.950171962429419"><ele>264.0</ele><time>2026-04-20T14:34:30Z</time></trkpt><trkpt lat="44.455744117647065" lon="10.95036336258468"><ele>264.0</ele><time>2026-04-20T14:34:31Z</time></trkpt><trkpt lat="44.45579839432571" lon="10.950560377835478"><ele>261.6666666666667</ele><time>2026-04-20T14:34:32Z</time></trkpt><trkpt lat="44.4558735264934" lon="10.950754464849318"><ele>259.33333333333337</ele><time>2026-04-20T14:34:33Z</time></trkpt><trkpt lat="44.45593502146457" lon="10.950972475726322"><ele>257.0</ele><time>2026-04-20T14:34:34Z</time></trkpt><trkpt lat="44.45596617879689" lon="10.951212405007508"><ele>254.33333333333334</ele><time>2026-04-20T14:34:35Z</time></trkpt><trkpt lat="44.45597014954061" lon="10.951448965113359"><ele>251.66666666666669</ele><time>2026-04-20T14:34:36Z</time></trkpt><trkpt lat="44.45594958620035" lon="10.951659214560719"><ele>249.0</ele><time>2026-04-20T14:34:37Z</time></trkpt><trkpt lat="44.45590860333188" lon="10.951856668319499"><ele>247.0</ele><time>2026-04-20T14:34:38Z</time></trkpt><trkpt lat="44.455873099668615" lon="10.952019172620876"><ele>245.0</ele><time>2026-04-20T14:34:39Z</time></trkpt><trkpt lat="44.4558847959417" lon="10.952169556982367"><ele>243.0</ele><time>2026-04-20T14:34:40Z</time></trkpt><trkpt lat="44.455940234857806" lon="10.952318599441348"><ele>241.0</ele><time>2026-04-20T14:34:41Z</time></trkpt><trkpt lat="44.45604243482735" lon="10.952465709895362"><ele>237.33333333333331</ele><time>2026-04-20T14:34:42Z</time></trkpt><trkpt lat="44.4561548805085" lon="10.95262093957616"><ele>233.66666666666669</ele><time>2026-04-20T14:34:43Z</time></trkpt><trkpt lat="44.456230417146024" lon="10.952816638730495"><ele>230.0</ele><time>2026-04-20T14:34:44Z</time></trkpt><trkpt lat="44.45631243463073" lon="10.953020366845886"><ele>238.0</ele><time>2026-04-20T14:34:45Z</time></trkpt><trkpt lat="44.45636492954106" lon="10.953228325325602"><ele>246.0</ele><time>2026-04-20T14:34:46Z</time></trkpt><trkpt lat="44.45639450682479" lon="10.953434643881998"><ele>254.0</ele><time>2026-04-20T14:34:47Z</time></trkpt><trkpt lat="44.456401775109654" lon="10.953645044024187"><ele>254.0</ele><time>2026-04-20T14:34:48Z</time></trkpt><trkpt lat="44.45636920355587" lon="10.953858778026847"><ele>254.0</ele><time>2026-04-20T14:34:49Z</time></trkpt><trkpt lat="44.45631871308041" lon="10.954057484318223"><ele>254.0</ele><time>2026-04-20T14:34:50Z</time></trkpt><trkpt lat="44.45624177714371" lon="10.95423316576943"><ele>250.0</ele><time>2026-04-20T14:34:51Z</time></trkpt><trkpt lat="44.456132661435085" lon="10.954361390152492"><ele>246.0</ele><time>2026-04-20T14:34:52Z</time></trkpt><trkpt lat="44.456020211857485" lon="10.954487166481686"><ele>242.0</ele><time>2026-04-20T14:34:53Z</time></trkpt><trkpt lat="44.455902659707" lon="10.954568632828842"><ele>238.0</ele><time>2026-04-20T14:34:54Z</time></trkpt><trkpt lat="44.455806465529776" lon="10.954662139720165"><ele>238.0</ele><time>2026-04-20T14:34:55Z</time></trkpt><trkpt lat="44.45575063131635" lon="10.954800415977692"><ele>238.0</ele><time>2026-04-20T14:34:56Z</time></trkpt><trkpt lat="44.45572870247039" lon="10.954984648698147"><ele>238.0</ele><time>2026-04-20T14:34:57Z</time></trkpt><trkpt lat="44.45572484733697" lon="10.955189565062204"><ele>238.0</ele><time>2026-04-20T14:34:58Z</time></trkpt><trkpt lat="44.45570788625504" lon="10.955404752835443"><ele>238.5</ele><time>2026-04-20T14:34:59Z</time></trkpt><trkpt lat="44.455637028288464" lon="10.955600653333413"><ele>239.0</ele><time>2026-04-20T14:35:00Z</time></trkpt><trkpt lat="44.45559229357156" lon="10.955782173882438"><ele>239.5</ele><time>2026-04-20T14:35:01Z</time></trkpt><trkpt lat="44.45554262608813" lon="10.955952967458424"><ele>240.0</ele><time>2026-04-20T14:35:02Z</time></trkpt><trkpt lat="44.455526596348754" lon="10.956131595462333"><ele>238.33333333333331</ele><time>2026-04-20T14:35:03Z</time></trkpt><trkpt lat="44.45556706310285" lon="10.95632439489359"><ele>236.66666666666666</ele><time>2026-04-20T14:35:04Z</time></trkpt><trkpt lat="44.4556404118642" lon="10.956517158250856"><ele>235.0</ele><time>2026-04-20T14:35:05Z</time></trkpt><trkpt lat="44.45570850871725" lon="10.956735445812663"><ele>231.66666666666666</ele><time>2026-04-20T14:35:06Z</time></trkpt><trkpt lat="44.45572192435045" lon="10.956964176109167"><ele>228.33333333333331</ele><time>2026-04-20T14:35:07Z</time></trkpt><trkpt lat="44.45577720814763" lon="10.957160706045048"><ele>225.0</ele><time>2026-04-20T14:35:08Z</time></trkpt><trkpt lat="44.4558356235379" lon="10.957348169511333"><ele>225.0</ele><time>2026-04-20T14:35:09Z</time></trkpt><trkpt lat="44.45587880522035" lon="10.957534126216322"><ele>225.0</ele><time>2026-04-20T14:35:10Z</time></trkpt><trkpt lat="44.45588124791463" lon="10.957745770147922"><ele>225.0</ele><time>2026-04-20T14:35:11Z</time></trkpt><trkpt lat="44.45583208522417" lon="10.957963905635703"><ele>224.66666666666669</ele><time>2026-04-20T14:35:12Z</time></trkpt><trkpt lat="44.4557371979623" lon="10.958168934522261"><ele>224.33333333333334</ele><time>2026-04-20T14:35:13Z</time></trkpt><trkpt lat="44.45565580286225" lon="10.958368507964368"><ele>224.0</ele><time>2026-04-20T14:35:14Z</time></trkpt><trkpt lat="44.455567584414354" lon="10.958530852090654"><ele>224.0</ele><time>2026-04-20T14:35:15Z</time></trkpt><trkpt lat="44.45550162332702" lon="10.958665511144588"><ele>223.99999999999997</ele><time>2026-04-20T14:35:16Z</time></trkpt><trkpt lat="44.45544809225671" lon="10.958752572825972"><ele>223.99999999999997</ele><time>2026-04-20T14:35:17Z</time></trkpt><trkpt lat="44.455342552849416" lon="10.958721422248818"><ele>224.0</ele><time>2026-04-20T14:35:19Z</time></trkpt><trkpt lat="44.4553229293352" lon="10.958633793894077"><ele>224.0</ele><time>2026-04-20T14:35:20Z</time></trkpt><trkpt lat="44.45538965397234" lon="10.958529168834499"><ele>224.0</ele><time>2026-04-20T14:35:21Z</time></trkpt><trkpt lat="44.45544456226445" lon="10.958384112278836"><ele>224.0</ele><time>2026-04-20T14:35:22Z</time></trkpt><trkpt lat="44.455513099695395" lon="10.958218755331497"><ele>224.0</ele><time>2026-04-20T14:35:22.999Z</time></trkpt><trkpt lat="44.4555389869064" lon="10.95800842719677"><ele>224.0</ele><time>2026-04-20T14:35:23.999Z</time></trkpt><trkpt lat="44.455515327542486" lon="10.957785159683414"><ele>216.66666666666669</ele><time>2026-04-20T14:35:24.999Z</time></trkpt><trkpt lat="44.45544852654961" lon="10.957578829466511"><ele>209.33333333333331</ele><time>2026-04-20T14:35:25.999Z</time></trkpt><trkpt lat="44.45533900314227" lon="10.957386014119944"><ele>202.0</ele><time>2026-04-20T14:35:26.999Z</time></trkpt><trkpt lat="44.455223191547134" lon="10.957202289869356"><ele>202.0</ele><time>2026-04-20T14:35:27.999Z</time></trkpt><trkpt lat="44.45511502300609" lon="10.957035969779268"><ele>202.0</ele><time>2026-04-20T14:35:28.998Z</time></trkpt><trkpt lat="44.455019539341784" lon="10.956873676279603"><ele>202.0</ele><time>2026-04-20T14:35:29.998Z</time></trkpt><trkpt lat="44.45493170287268" lon="10.956722528565123"><ele>201.99999999999997</ele><time>2026-04-20T14:35:31Z</time></trkpt><trkpt lat="44.45485671737626" lon="10.956588183711542"><ele>202.0</ele><time>2026-04-20T14:35:32Z</time></trkpt><trkpt lat="44.45479219170235" lon="10.956486213511681"><ele>202.0</ele><time>2026-04-20T14:35:33Z</time></trkpt><trkpt lat="44.45473032987624" lon="10.956449791397961"><ele>202.0</ele><time>2026-04-20T14:35:34Z</time></trkpt><trkpt lat="44.45466574981656" lon="10.956494999433263"><ele>201.99999999999997</ele><time>2026-04-20T14:35:35Z</time></trkpt><trkpt lat="44.45460872646879" lon="10.956591969667853"><ele>202.0</ele><time>2026-04-20T14:35:36Z</time></trkpt><trkpt lat="44.45465050590413" lon="10.956756559508015"><ele>202.0</ele><time>2026-04-20T14:35:37Z</time></trkpt><trkpt lat="44.454711899300776" lon="10.956921445003303"><ele>202.0</ele><time>2026-04-20T14:35:38Z</time></trkpt><trkpt lat="44.45477048794728" lon="10.957091190563524"><ele>202.0</ele><time>2026-04-20T14:35:39Z</time></trkpt><trkpt lat="44.45481414023318" lon="10.95728030179431"><ele>202.0</ele><time>2026-04-20T14:35:40Z</time></trkpt><trkpt lat="44.454844608402" lon="10.957477023093714"><ele>201.5</ele><time>2026-04-20T14:35:41Z</time></trkpt><trkpt lat="44.45484322268355" lon="10.957673962420785"><ele>201.0</ele><time>2026-04-20T14:35:42Z</time></trkpt><trkpt lat="44.454852138354774" lon="10.95786638758712"><ele>200.5</ele><time>2026-04-20T14:35:43Z</time></trkpt><trkpt lat="44.45479456540883" lon="10.958049566590724"><ele>200.0</ele><time>2026-04-20T14:35:44Z</time></trkpt><trkpt lat="44.45474905246802" lon="10.958236929581997"><ele>198.75</ele><time>2026-04-20T14:35:45Z</time></trkpt><trkpt lat="44.45469594421005" lon="10.958414854293615"><ele>197.5</ele><time>2026-04-20T14:35:46Z</time></trkpt><trkpt lat="44.45467795329466" lon="10.95861769778807"><ele>196.25</ele><time>2026-04-20T14:35:47Z</time></trkpt><trkpt lat="44.45471292907839" lon="10.958841000458822"><ele>195.0</ele><time>2026-04-20T14:35:48Z</time></trkpt><trkpt lat="44.45476533209179" lon="10.959066874253338"><ele>191.0</ele><time>2026-04-20T14:35:49Z</time></trkpt><trkpt lat="44.454823000274686" lon="10.959306799151394"><ele>187.0</ele><time>2026-04-20T14:35:49.999Z</time></trkpt><trkpt lat="44.45487107135938" lon="10.959535975498653"><ele>183.0</ele><time>2026-04-20T14:35:50.999Z</time></trkpt><trkpt lat="44.45491053126203" lon="10.959748305840492"><ele>183.0</ele><time>2026-04-20T14:35:51.999Z</time></trkpt><trkpt lat="44.45494546492779" lon="10.959953807053296"><ele>183.0</ele><time>2026-04-20T14:35:52.999Z</time></trkpt><trkpt lat="44.454970452785396" lon="10.96016172752604"><ele>183.0</ele><time>2026-04-20T14:35:53.999Z</time></trkpt><trkpt lat="44.45498129050505" lon="10.960364649119436"><ele>183.0</ele><time>2026-04-20T14:35:54.999Z</time></trkpt><trkpt lat="44.45499788427127" lon="10.960565036020713"><ele>181.0</ele><time>2026-04-20T14:35:55.999Z</time></trkpt><trkpt lat="44.4550332497516" lon="10.960767054864773"><ele>179.0</ele><time>2026-04-20T14:35:56.999Z</time></trkpt><trkpt lat="44.45509912023456" lon="10.960965768784302"><ele>177.0</ele><time>2026-04-20T14:35:57.999Z</time></trkpt><trkpt lat="44.45519261145595" lon="10.961140886647142"><ele>175.5</ele><time>2026-04-20T14:35:58.999Z</time></trkpt><trkpt lat="44.45529325237731" lon="10.961294155154969"><ele>174.0</ele><time>2026-04-20T14:35:59.999Z</time></trkpt><trkpt lat="44.455388522388425" lon="10.961428954411613"><ele>172.5</ele><time>2026-04-20T14:36:00.999Z</time></trkpt><trkpt lat="44.455449860764055" lon="10.961568575691837"><ele>171.0</ele><time>2026-04-20T14:36:01.999Z</time></trkpt><trkpt lat="44.455476656736984" lon="10.961719295222467"><ele>169.75</ele><time>2026-04-20T14:36:02.999Z</time></trkpt><trkpt lat="44.45542389999969" lon="10.961861983082027"><ele>168.5</ele><time>2026-04-20T14:36:03.999Z</time></trkpt><trkpt lat="44.45534977403448" lon="10.961994071841396"><ele>167.25</ele><time>2026-04-20T14:36:04.999Z</time></trkpt><trkpt lat="44.4552987547505" lon="10.962153024455437"><ele>166.0</ele><time>2026-04-20T14:36:05.999Z</time></trkpt><trkpt lat="44.45528764380832" lon="10.962345784437542"><ele>164.66666666666669</ele><time>2026-04-20T14:36:06.999Z</time></trkpt><trkpt lat="44.455310779433184" lon="10.962569562603656"><ele>163.33333333333334</ele><time>2026-04-20T14:36:07.999Z</time></trkpt><trkpt lat="44.45534085094644" lon="10.962797663735552"><ele>162.0</ele><time>2026-04-20T14:36:08.999Z</time></trkpt><trkpt lat="44.455371921783644" lon="10.96302951630231"><ele>162.0</ele><time>2026-04-20T14:36:09.999Z</time></trkpt><trkpt lat="44.455416806171876" lon="10.963269542856308"><ele>162.0</ele><time>2026-04-20T14:36:10.999Z</time></trkpt><trkpt lat="44.45548192979388" lon="10.963492156244403"><ele>162.0</ele><time>2026-04-20T14:36:11.999Z</time></trkpt><trkpt lat="44.45555897229655" lon="10.963693200619991"><ele>162.66666666666666</ele><time>2026-04-20T14:36:12.999Z</time></trkpt><trkpt lat="44.455648843465156" lon="10.96387245057191"><ele>163.33333333333331</ele><time>2026-04-20T14:36:13.999Z</time></trkpt><trkpt lat="44.45575403634764" lon="10.964021616022896"><ele>164.0</ele><time>2026-04-20T14:36:14.999Z</time></trkpt><trkpt lat="44.45589027727153" lon="10.96413060425201"><ele>161.79999999999998</ele><time>2026-04-20T14:36:15.999Z</time></trkpt><trkpt lat="44.45601726471661" lon="10.96422583007906"><ele>159.6</ele><time>2026-04-20T14:36:16.999Z</time></trkpt><trkpt lat="44.456115629353874" lon="10.964309140416045"><ele>157.4</ele><time>2026-04-20T14:36:17.999Z</time></trkpt><trkpt lat="44.45617478194947" lon="10.964371684629512"><ele>155.2</ele><time>2026-04-20T14:36:18.999Z</time></trkpt><trkpt lat="44.456160905263744" lon="10.964479178110517"><ele>153.0</ele><time>2026-04-20T14:36:20.999Z</time></trkpt><trkpt lat="44.45608942889104" lon="10.964497791503792"><ele>153.0</ele><time>2026-04-20T14:36:21.999Z</time></trkpt><trkpt lat="44.45600866062462" lon="10.96445575958001"><ele>153.0</ele><time>2026-04-20T14:36:22.999Z</time></trkpt><trkpt lat="44.455906232380705" lon="10.964409642302767"><ele>153.0</ele><time>2026-04-20T14:36:23.999Z</time></trkpt><trkpt lat="44.45578742802953" lon="10.964380395775933"><ele>153.0</ele><time>2026-04-20T14:36:24.999Z</time></trkpt><trkpt lat="44.45565748032971" lon="10.964361426252133"><ele>153.0</ele><time>2026-04-20T14:36:25.999Z</time></trkpt><trkpt lat="44.45551635196751" lon="10.964330762538344"><ele>152.25</ele><time>2026-04-20T14:36:26.999Z</time></trkpt><trkpt lat="44.45539182306765" lon="10.964264577434356"><ele>151.5</ele><time>2026-04-20T14:36:27.999Z</time></trkpt><trkpt lat="44.45527237008293" lon="10.96423089933564"><ele>150.75</ele><time>2026-04-20T14:36:28.999Z</time></trkpt><trkpt lat="44.455173098859724" lon="10.964175829559837"><ele>150.0</ele><time>2026-04-20T14:36:29.999Z</time></trkpt><trkpt lat="44.45507291764334" lon="10.96412333226758"><ele>150.0</ele><time>2026-04-20T14:36:30.999Z</time></trkpt><trkpt lat="44.454975865278335" lon="10.96409365473112"><ele>150.0</ele><time>2026-04-20T14:36:31.999Z</time></trkpt><trkpt lat="44.45487672270121" lon="10.964033873068535"><ele>150.0</ele><time>2026-04-20T14:36:33.999Z</time></trkpt><trkpt lat="44.454817383843" lon="10.964089228923163"><ele>150.0</ele><time>2026-04-20T14:36:35.999Z</time></trkpt><trkpt lat="44.45489118882325" lon="10.964325198106543"><ele>150.0</ele><time>2026-04-20T14:36:40.999Z</time></trkpt><trkpt lat="44.454946300664425" lon="10.964412555000703"><ele>150.0</ele><time>2026-04-20T14:36:41.999Z</time></trkpt><trkpt lat="44.45507733454017" lon="10.964610819223106"><ele>150.0</ele><time>2026-04-20T14:39:04.999Z</time></trkpt><trkpt lat="44.455150391213714" lon="10.964727748431791"><ele>150.0</ele><time>2026-04-20T14:39:05.999Z</time></trkpt><trkpt lat="44.455219492364336" lon="10.96487350789196"><ele>148.75</ele><time>2026-04-20T14:39:06.999Z</time></trkpt><trkpt lat="44.45529007261773" lon="10.96503267588459"><ele>147.5</ele><time>2026-04-20T14:39:07.999Z</time></trkpt><trkpt lat="44.455366191411564" lon="10.965183004704604"><ele>146.25</ele><time>2026-04-20T14:39:08.999Z</time></trkpt><trkpt lat="44.45542168516877" lon="10.965336704293856"><ele>145.0</ele><time>2026-04-20T14:39:09.999Z</time></trkpt><trkpt lat="44.45548779305495" lon="10.96547604515205"><ele>145.0</ele><time>2026-04-20T14:39:10.999Z</time></trkpt><trkpt lat="44.45555466754536" lon="10.96560249400639"><ele>145.0</ele><time>2026-04-20T14:39:11.999Z</time></trkpt><trkpt lat="44.45563129870294" lon="10.965710441073615"><ele>145.0</ele><time>2026-04-20T14:39:12.999Z</time></trkpt><trkpt lat="44.45568574754" lon="10.965828175986701"><ele>145.0</ele><time>2026-04-20T14:39:13.998Z</time></trkpt><trkpt lat="44.4557212578526" lon="10.965921230062838"><ele>145.0</ele><time>2026-04-20T14:39:14.998Z</time></trkpt><trkpt lat="44.45576939454586" lon="10.966017516464222"><ele>144.5</ele><time>2026-04-20T14:39:16.998Z</time></trkpt><trkpt lat="44.45585048858991" lon="10.966059235391567"><ele>144.0</ele><time>2026-04-20T14:39:18.998Z</time></trkpt><trkpt lat="44.45596053701065" lon="10.96602219276123"><ele>143.5</ele><time>2026-04-20T14:39:20.998Z</time></trkpt><trkpt lat="44.456024043682824" lon="10.96599670493383"><ele>143.0</ele><time>2026-04-20T14:39:21.998Z</time></trkpt><trkpt lat="44.456104181818546" lon="10.965968449714026"><ele>142.5</ele><time>2026-04-20T14:39:22.998Z</time></trkpt><trkpt lat="44.45618924808099" lon="10.965984937186185"><ele>142.0</ele><time>2026-04-20T14:39:23.998Z</time></trkpt><trkpt lat="44.45630827087458" lon="10.96596847467118"><ele>141.33333333333334</ele><time>2026-04-20T14:39:24.998Z</time></trkpt><trkpt lat="44.45644942842187" lon="10.965956181918603"><ele>140.66666666666666</ele><time>2026-04-20T14:39:25.998Z</time></trkpt><trkpt lat="44.456626516717236" lon="10.965991487547667"><ele>140.0</ele><time>2026-04-20T14:39:26.998Z</time></trkpt><trkpt lat="44.45686663713549" lon="10.965981089333049"><ele>140.0</ele><time>2026-04-20T14:39:27.998Z</time></trkpt><trkpt lat="44.457093202305174" lon="10.965936388370695"><ele>140.0</ele><time>2026-04-20T14:39:28.998Z</time></trkpt><trkpt lat="44.457285879287774" lon="10.965909809224485"><ele>140.0</ele><time>2026-04-20T14:39:29.998Z</time></trkpt><trkpt lat="44.457478240125" lon="10.965885267542603"><ele>139.33333333333331</ele><time>2026-04-20T14:39:30.998Z</time></trkpt><trkpt lat="44.45766586471115" lon="10.965885374630954"><ele>138.66666666666666</ele><time>2026-04-20T14:39:31.998Z</time></trkpt><trkpt lat="44.45784777350922" lon="10.965895660357495"><ele>138.0</ele><time>2026-04-20T14:39:32.998Z</time></trkpt><trkpt lat="44.45804653120664" lon="10.965910853719645"><ele>138.0</ele><time>2026-04-20T14:39:33.998Z</time></trkpt><trkpt lat="44.45826935762594" lon="10.965937915061438"><ele>138.0</ele><time>2026-04-20T14:39:34.998Z</time></trkpt><trkpt lat="44.458483127668146" lon="10.965961580226136"><ele>138.0</ele><time>2026-04-20T14:39:35.998Z</time></trkpt><trkpt lat="44.45866771559288" lon="10.965957635811492"><ele>138.66666666666666</ele><time>2026-04-20T14:39:36.998Z</time></trkpt><trkpt lat="44.45884419161326" lon="10.965935093074757"><ele>139.33333333333331</ele><time>2026-04-20T14:39:37.998Z</time></trkpt><trkpt lat="44.45900315984473" lon="10.96590212038507"><ele>140.0</ele><time>2026-04-20T14:39:38.998Z</time></trkpt><trkpt lat="44.459155062777214" lon="10.965886382115508"><ele>140.0</ele><time>2026-04-20T14:39:39.998Z</time></trkpt><trkpt lat="44.45930955521973" lon="10.965901480165273"><ele>140.0</ele><time>2026-04-20T14:39:40.998Z</time></trkpt><trkpt lat="44.45945312370962" lon="10.965938563112685"><ele>140.0</ele><time>2026-04-20T14:39:41.998Z</time></trkpt><trkpt lat="44.4595783750502" lon="10.965993041137864"><ele>140.0</ele><time>2026-04-20T14:39:42.999Z</time></trkpt><trkpt lat="44.45968967306417" lon="10.966026085977628"><ele>140.0</ele><time>2026-04-20T14:39:43.999Z</time></trkpt><trkpt lat="44.45979805899643" lon="10.965995895884857"><ele>140.0</ele><time>2026-04-20T14:39:44.999Z</time></trkpt><trkpt lat="44.45990487048177" lon="10.965873846584463"><ele>140.0</ele><time>2026-04-20T14:39:45.999Z</time></trkpt><trkpt lat="44.46002944932541" lon="10.965690732875222"><ele>140.0</ele><time>2026-04-20T14:39:46.999Z</time></trkpt><trkpt lat="44.4601784963965" lon="10.965488684855986"><ele>140.0</ele><time>2026-04-20T14:39:47.999Z</time></trkpt><trkpt lat="44.46035740893437" lon="10.965289741930556"><ele>140.0</ele><time>2026-04-20T14:39:48.999Z</time></trkpt><trkpt lat="44.46053938107365" lon="10.965148521095653"><ele>140.0</ele><time>2026-04-20T14:39:49.999Z</time></trkpt><trkpt lat="44.46069494807998" lon="10.965041807726609"><ele>140.25</ele><time>2026-04-20T14:39:50.999Z</time></trkpt><trkpt lat="44.46082810589072" lon="10.964933732181228"><ele>140.5</ele><time>2026-04-20T14:39:51.999Z</time></trkpt><trkpt lat="44.46095346830566" lon="10.964833034172553"><ele>140.75</ele><time>2026-04-20T14:39:52.999Z</time></trkpt><trkpt lat="44.46106466954119" lon="10.96474481321001"><ele>141.0</ele><time>2026-04-20T14:39:53.999Z</time></trkpt><trkpt lat="44.46117106354912" lon="10.964662620937613"><ele>141.0</ele><time>2026-04-20T14:39:54.999Z</time></trkpt><trkpt lat="44.46128607322144" lon="10.96458146015733"><ele>141.0</ele><time>2026-04-20T14:39:55.999Z</time></trkpt><trkpt lat="44.461423295671665" lon="10.96451138402442"><ele>141.0</ele><time>2026-04-20T14:39:56.999Z</time></trkpt><trkpt lat="44.461516161919455" lon="10.96447227806182"><ele>141.0</ele><time>2026-04-20T14:39:57.999Z</time></trkpt><trkpt lat="44.461613350787495" lon="10.964453857484246"><ele>141.0</ele><time>2026-04-20T14:39:58.999Z</time></trkpt><trkpt lat="44.461713755327544" lon="10.964467818160216"><ele>141.0</ele><time>2026-04-20T14:39:59.999Z</time></trkpt><trkpt lat="44.46180965740798" lon="10.964495782916643"><ele>141.0</ele><time>2026-04-20T14:40:00.999Z</time></trkpt><trkpt lat="44.461906172693595" lon="10.96453758207512"><ele>141.0</ele><time>2026-04-20T14:40:01.999Z</time></trkpt><trkpt lat="44.46199026623569" lon="10.964590922065216"><ele>141.0</ele><time>2026-04-20T14:40:02.999Z</time></trkpt><trkpt lat="44.4620661620399" lon="10.964652034375668"><ele>141.0</ele><time>2026-04-20T14:40:03.999Z</time></trkpt><trkpt lat="44.462142263966115" lon="10.964743033019484"><ele>141.0</ele><time>2026-04-20T14:40:04.999Z</time></trkpt><trkpt lat="44.4622061538128" lon="10.964867016564744"><ele>141.0</ele><time>2026-04-20T14:40:05.999Z</time></trkpt><trkpt lat="44.46226683259574" lon="10.965006055464576"><ele>141.0</ele><time>2026-04-20T14:40:06.999Z</time></trkpt><trkpt lat="44.46233635505036" lon="10.96514418238741"><ele>141.0</ele><time>2026-04-20T14:40:07.999Z</time></trkpt><trkpt lat="44.46240612654551" lon="10.965283671347754"><ele>141.0</ele><time>2026-04-20T14:40:08.999Z</time></trkpt><trkpt lat="44.46247817610545" lon="10.965423291162356"><ele>141.0</ele><time>2026-04-20T14:40:09.999Z</time></trkpt><trkpt lat="44.46255552087589" lon="10.965574364983596"><ele>141.0</ele><time>2026-04-20T14:40:10.999Z</time></trkpt><trkpt lat="44.462628319891635" lon="10.965740778182386"><ele>141.0</ele><time>2026-04-20T14:40:11.999Z</time></trkpt><trkpt lat="44.462683042972586" lon="10.965912582189311"><ele>140.75</ele><time>2026-04-20T14:40:12.999Z</time></trkpt><trkpt lat="44.462730265879564" lon="10.966084308689135"><ele>140.5</ele><time>2026-04-20T14:40:13.999Z</time></trkpt><trkpt lat="44.46277936823225" lon="10.966256184703633"><ele>140.25</ele><time>2026-04-20T14:40:14.999Z</time></trkpt><trkpt lat="44.462831844734175" lon="10.966428585782753"><ele>140.0</ele><time>2026-04-20T14:40:15.999Z</time></trkpt><trkpt lat="44.46288289339966" lon="10.966604564552371"><ele>140.0</ele><time>2026-04-20T14:40:16.999Z</time></trkpt><trkpt lat="44.462924508448694" lon="10.966791541135494"><ele>140.0</ele><time>2026-04-20T14:40:17.999Z</time></trkpt><trkpt lat="44.46296051317439" lon="10.966993027070208"><ele>140.0</ele><time>2026-04-20T14:40:18.999Z</time></trkpt><trkpt lat="44.46297382122734" lon="10.967222854390059"><ele>138.33333333333331</ele><time>2026-04-20T14:40:19.999Z</time></trkpt><trkpt lat="44.46299995248843" lon="10.967464109549352"><ele>136.66666666666666</ele><time>2026-04-20T14:40:20.999Z</time></trkpt><trkpt lat="44.46302357888798" lon="10.96773193451988"><ele>135.0</ele><time>2026-04-20T14:40:21.999Z</time></trkpt><trkpt lat="44.46304803441768" lon="10.96800410302178"><ele>135.0</ele><time>2026-04-20T14:40:22.999Z</time></trkpt><trkpt lat="44.46308605152072" lon="10.968273733375169"><ele>135.0</ele><time>2026-04-20T14:40:23.999Z</time></trkpt><trkpt lat="44.46309720783688" lon="10.968543358750964"><ele>135.0</ele><time>2026-04-20T14:40:24.999Z</time></trkpt><trkpt lat="44.46309772960407" lon="10.968817207402076"><ele>135.0</ele><time>2026-04-20T14:40:25.999Z</time></trkpt><trkpt lat="44.46308226629842" lon="10.969096154354707"><ele>135.0</ele><time>2026-04-20T14:40:26.999Z</time></trkpt><trkpt lat="44.46305014498024" lon="10.969366975154074"><ele>135.0</ele><time>2026-04-20T14:40:27.999Z</time></trkpt><trkpt lat="44.463012989225305" lon="10.969639200403558"><ele>134.66666666666666</ele><time>2026-04-20T14:40:28.999Z</time></trkpt><trkpt lat="44.46297957105542" lon="10.969896670214347"><ele>134.33333333333331</ele><time>2026-04-20T14:40:29.999Z</time></trkpt><trkpt lat="44.462963947589415" lon="10.970145405797581"><ele>134.0</ele><time>2026-04-20T14:40:30.999Z</time></trkpt><trkpt lat="44.4629319613403" lon="10.970360268884658"><ele>134.0</ele><time>2026-04-20T14:40:31.999Z</time></trkpt><trkpt lat="44.46290864301538" lon="10.970562955434932"><ele>134.0</ele><time>2026-04-20T14:40:32.999Z</time></trkpt><trkpt lat="44.46289555007473" lon="10.97073183591188"><ele>134.0</ele><time>2026-04-20T14:40:33.999Z</time></trkpt><trkpt lat="44.462894182929325" lon="10.97090759284896"><ele>134.0</ele><time>2026-04-20T14:40:34.999Z</time></trkpt><trkpt lat="44.462913622779" lon="10.971120235125507"><ele>133.33333333333331</ele><time>2026-04-20T14:40:35.999Z</time></trkpt><trkpt lat="44.46296080536274" lon="10.971322159042874"><ele>132.66666666666666</ele><time>2026-04-20T14:40:36.999Z</time></trkpt><trkpt lat="44.463037168949455" lon="10.971515132654481"><ele>132.0</ele><time>2026-04-20T14:40:37.999Z</time></trkpt><trkpt lat="44.463132433402826" lon="10.971710669681624"><ele>132.0</ele><time>2026-04-20T14:40:38.999Z</time></trkpt><trkpt lat="44.46325281243907" lon="10.971927233191662"><ele>132.0</ele><time>2026-04-20T14:40:39.999Z</time></trkpt><trkpt lat="44.46338359472443" lon="10.97215275558554"><ele>132.0</ele><time>2026-04-20T14:40:40.999Z</time></trkpt><trkpt lat="44.46352144578068" lon="10.972327213666285"><ele>132.0</ele><time>2026-04-20T14:40:41.999Z</time></trkpt><trkpt lat="44.46368977178211" lon="10.972483180693015"><ele>132.0</ele><time>2026-04-20T14:40:42.999Z</time></trkpt><trkpt lat="44.46384360300062" lon="10.972600160170982"><ele>132.0</ele><time>2026-04-20T14:40:43.999Z</time></trkpt><trkpt lat="44.46397815518357" lon="10.972713009089313"><ele>131.79999999999998</ele><time>2026-04-20T14:40:44.999Z</time></trkpt><trkpt lat="44.464101049659774" lon="10.972824658050222"><ele>131.6</ele><time>2026-04-20T14:40:45.999Z</time></trkpt><trkpt lat="44.46420687380821" lon="10.972912435974152"><ele>131.39999999999998</ele><time>2026-04-20T14:40:46.999Z</time></trkpt><trkpt lat="44.46426389482032" lon="10.972970797088662"><ele>131.2</ele><time>2026-04-20T14:40:47.999Z</time></trkpt><trkpt lat="44.464338087493715" lon="10.973025177781498"><ele>131.0</ele><time>2026-04-20T14:40:49.999Z</time></trkpt><trkpt lat="44.46445373461711" lon="10.972921848414195"><ele>131.0</ele><time>2026-04-20T14:40:52.999Z</time></trkpt><trkpt lat="44.46448979696852" lon="10.972778631521773"><ele>131.0</ele><time>2026-04-20T14:40:54.999Z</time></trkpt><trkpt lat="44.46452243796989" lon="10.972699115322044"><ele>131.0</ele><time>2026-04-20T14:40:56.999Z</time></trkpt><trkpt lat="44.46446317692397" lon="10.972584249754403"><ele>131.0</ele><time>2026-04-20T14:40:57.999Z</time></trkpt><trkpt lat="44.464520680434525" lon="10.972510388395536"><ele>131.0</ele><time>2026-04-20T14:40:59.999Z</time></trkpt><trkpt lat="44.464597380929256" lon="10.972484142334078"><ele>131.0</ele><time>2026-04-20T14:41:01.999Z</time></trkpt><trkpt lat="44.46465657702873" lon="10.972424348233675"><ele>132.0</ele><time>2026-04-20T14:41:03.999Z</time></trkpt><trkpt lat="44.464575498302494" lon="10.972444554511672"><ele>133.0</ele><time>2026-04-20T14:41:10.999Z</time></trkpt><trkpt lat="44.46453273799523" lon="10.97251127836486"><ele>133.0</ele><time>2026-04-20T14:41:12.999Z</time></trkpt><trkpt lat="44.464500098909625" lon="10.972614232132738"><ele>131.0</ele><time>2026-04-20T14:41:15.999Z</time></trkpt></trkseg></trk></gpx>